Observation data for Sierra Blanca on 03/01/2021      Previous  Date  Next       Current Mesonet Observations  Soil Data  Daily Summary Page  Observations in Plain Language
KSB1 010600Z 30020KT 08/M20 A3003 RMK A01 T00751197  RH  012%=      5-min Rain = 0
KSB1 010601Z 30019KT 07/M20 A3003 RMK A01 T00741197  RH  012%=      5-min Rain = 0
KSB1 010602Z 30017KT 07/M20 A3003 RMK A01 T00741197  RH  013%=      5-min Rain = 0
KSB1 010603Z 30020KT 07/M20 A3003 RMK A01 T00741196  RH  013%=      5-min Rain = 0
KSB1 010604Z 30017KT 07/M20 A3003 RMK A01 T00731197  RH  013%=      5-min Rain = 0
KSB1 010605Z 30016KT 07/M20 A3003 RMK A01 T00721197  RH  013%=      5-min Rain = 0
KSB1 010606Z 30015KT 07/M20 A3003 RMK A01 T00721197  RH  013%=      5-min Rain = 0
KSB1 010607Z 30018KT 07/M20 A3003 RMK A01 T00721196  RH  013%=      5-min Rain = 0
KSB1 010608Z 30017KT 07/M20 A3003 RMK A01 T00721196  RH  013%=      5-min Rain = 0
KSB1 010609Z 30014KT 07/M20 A3004 RMK A01 T00711197  RH  013%=      5-min Rain = 0
KSB1 010610Z 31015KT 07/M20 A3004 RMK A01 T00701197  RH  013%=      5-min Rain = 0
KSB1 010611Z 30016KT 07/M20 A3003 RMK A01 T00701197  RH  013%=      5-min Rain = 0
KSB1 010612Z 30016KT 07/M20 A3003 RMK A01 T00701197  RH  013%=      5-min Rain = 0
KSB1 010613Z 31014KT 07/M20 A3003 RMK A01 T00691197  RH  013%=      5-min Rain = 0
KSB1 010614Z 30019G24KT 07/M20 A3003 RMK A01 T00691196  RH  013%=      5-min Rain = 0
KSB1 010615Z 29021G27KT 07/M20 A3003 RMK A01 T00691197  RH  013%=      5-min Rain = 0
KSB1 010616Z 30021KT 07/M20 A3003 RMK A01 T00681197  RH  013%=      5-min Rain = 0
KSB1 010617Z 30020G25KT 07/M20 A3003 RMK A01 T00681196  RH  013%=      5-min Rain = 0
KSB1 010618Z 30018G24KT 07/M20 A3003 RMK A01 T00681197  RH  013%=      5-min Rain = 0
KSB1 010619Z 30018G24KT 07/M20 A3003 RMK A01 T00681197  RH  013%=      5-min Rain = 0
KSB1 010620Z 30017G22KT 07/M20 A3003 RMK A01 T00681197  RH  013%=      5-min Rain = 0
KSB1 010621Z 30018G23KT 07/M20 A3003 RMK A01 T00671198  RH  013%=      5-min Rain = 0
KSB1 010622Z 30016KT 07/M20 A3003 RMK A01 T00671197  RH  013%=      5-min Rain = 0
KSB1 010623Z 30019KT 07/M20 A3003 RMK A01 T00661198  RH  013%=      5-min Rain = 0
KSB1 010624Z 30021KT 07/M20 A3004 RMK A01 T00661198  RH  013%=      5-min Rain = 0
KSB1 010625Z 30022KT 07/M20 A3003 RMK A01 T00661198  RH  013%=      5-min Rain = 0
KSB1 010626Z 30017KT 07/M20 A3004 RMK A01 T00661198  RH  013%=      5-min Rain = 0
KSB1 010627Z 30016KT 07/M20 A3004 RMK A01 T00651199  RH  013%=      5-min Rain = 0
KSB1 010628Z 30023KT 07/M20 A3004 RMK A01 T00651199  RH  013%=      5-min Rain = 0
KSB1 010629Z 30020G26KT 07/M20 A3004 RMK A01 T00651199  RH  013%=      5-min Rain = 0
KSB1 010630Z 30017G23KT 07/M20 A3004 RMK A01 T00651199  RH  013%=      5-min Rain = 0
KSB1 010631Z 30020KT 07/M20 A3004 RMK A01 T00651200  RH  013%=      5-min Rain = 0
KSB1 010632Z 30022KT 07/M20 A3004 RMK A01 T00651199  RH  013%=      5-min Rain = 0
KSB1 010633Z 30018G23KT 07/M20 A3004 RMK A01 T00651200  RH  013%=      5-min Rain = 0
KSB1 010634Z 30017KT 07/M20 A3004 RMK A01 T00651200  RH  013%=      5-min Rain = 0
KSB1 010635Z 30020G27KT 06/M20 A3004 RMK A01 T00641200  RH  013%=      5-min Rain = 0
KSB1 010636Z 30023KT 06/M20 A3004 RMK A01 T00641200  RH  013%=      5-min Rain = 0
KSB1 010637Z 30020G25KT 06/M20 A3004 RMK A01 T00641200  RH  013%=      5-min Rain = 0
KSB1 010638Z 31013KT 06/M20 A3004 RMK A01 T00641200  RH  013%=      5-min Rain = 0
KSB1 010639Z 30019G24KT 06/M20 A3004 RMK A01 T00641200  RH  013%=      5-min Rain = 0
KSB1 010640Z 30021KT 06/M20 A3004 RMK A01 T00641200  RH  013%=      5-min Rain = 0
KSB1 010641Z 30020KT 06/M20 A3005 RMK A01 T00641201  RH  013%=      5-min Rain = 0
KSB1 010642Z 31016KT 06/M20 A3005 RMK A01 T00631201  RH  013%=      5-min Rain = 0
KSB1 010643Z 30017G22KT 06/M20 A3005 RMK A01 T00631201  RH  013%=      5-min Rain = 0
KSB1 010644Z 30018KT 06/M20 A3005 RMK A01 T00631201  RH  013%=      5-min Rain = 0
KSB1 010645Z 30019KT 06/M20 A3005 RMK A01 T00611201  RH  013%=      5-min Rain = 0
KSB1 010646Z 31016KT 06/M20 A3006 RMK A01 T00621200  RH  013%=      5-min Rain = 0
KSB1 010647Z 31015KT 06/M20 A3006 RMK A01 T00611201  RH  013%=      5-min Rain = 0
KSB1 010648Z 32016G21KT 06/M20 A3006 RMK A01 T00611201  RH  013%=      5-min Rain = 0
KSB1 010649Z 33019KT 06/M20 A3006 RMK A01 T00611202  RH  013%=      5-min Rain = 0
KSB1 010650Z 33020G29KT 06/M20 A3006 RMK A01 T00621203  RH  013%=      5-min Rain = 0
KSB1 010651Z 34015KT 06/M20 A3006 RMK A01 T00621204  RH  013%=      5-min Rain = 0
KSB1 010652Z 35014KT 06/M20 A3007 RMK A01 T00611203  RH  013%=      5-min Rain = 0
KSB1 010653Z 34012KT 06/M20 A3007 RMK A01 T00581202  RH  013%=      5-min Rain = 0
KSB1 010654Z 35011KT 06/M20 A3007 RMK A01 T00561203  RH  014%=      5-min Rain = 0
KSB1 010655Z 35013KT 05/M20 A3006 RMK A01 T00541202  RH  014%=      5-min Rain = 0
KSB1 010656Z 34014KT 05/M20 A3006 RMK A01 T00541202  RH  014%=      5-min Rain = 0
KSB1 010657Z 35011KT 05/M20 A3006 RMK A01 T00531202  RH  014%=      5-min Rain = 0
KSB1 010658Z 35013KT 05/M20 A3006 RMK A01 T00541202  RH  014%=      5-min Rain = 0
KSB1 010659Z 35014KT 05/M20 A3006 RMK A01 T00531202  RH  014%=      5-min Rain = 0
KSB1 010700Z 34014KT 05/M20 A3007 RMK A01 T00531203  RH  014%=      5-min Rain = 0
KSB1 010701Z 34014KT 05/M20 A3007 RMK A01 T00531204  RH  014%=      5-min Rain = 0
KSB1 010702Z 34013KT 05/M20 A3007 RMK A01 T00521204  RH  014%=      5-min Rain = 0
KSB1 010703Z 33011KT 05/M21 A3007 RMK A01 T00521205  RH  014%=      5-min Rain = 0
KSB1 010704Z 34011KT 05/M21 A3007 RMK A01 T00511205  RH  014%=      5-min Rain = 0
KSB1 010705Z 33011KT 05/M21 A3007 RMK A01 T00511205  RH  014%=      5-min Rain = 0
KSB1 010706Z 32013G18KT 05/M21 A3007 RMK A01 T00511205  RH  014%=      5-min Rain = 0
KSB1 010707Z 33013KT 05/M21 A3007 RMK A01 T00521205  RH  014%=      5-min Rain = 0
KSB1 010708Z 34011KT 05/M21 A3007 RMK A01 T00511205  RH  014%=      5-min Rain = 0
KSB1 010709Z 34012KT 05/M21 A3007 RMK A01 T00511205  RH  014%=      5-min Rain = 0
KSB1 010710Z 32012KT 05/M21 A3007 RMK A01 T00501206  RH  014%=      5-min Rain = 0
KSB1 010711Z 33014KT 05/M21 A3007 RMK A01 T00501206  RH  014%=      5-min Rain = 0
KSB1 010712Z 33014KT 05/M21 A3006 RMK A01 T00511207  RH  014%=      5-min Rain = 0
KSB1 010713Z 32016KT 05/M21 A3006 RMK A01 T00531208  RH  013%=      5-min Rain = 0
KSB1 010714Z 32017KT 06/M21 A3006 RMK A01 T00561208  RH  013%=      5-min Rain = 0
KSB1 010715Z 32018KT 06/M21 A3007 RMK A01 T00591211  RH  012%=      5-min Rain = 0
KSB1 010716Z 32019G25KT 06/M21 A3007 RMK A01 T00611212  RH  012%=      5-min Rain = 0
KSB1 010717Z 32020G25KT 06/M21 A3007 RMK A01 T00621213  RH  012%=      5-min Rain = 0
KSB1 010718Z 32018G28KT 06/M21 A3007 RMK A01 T00621214  RH  012%=      5-min Rain = 0
KSB1 010719Z 32017KT 06/M22 A3007 RMK A01 T00631215  RH  012%=      5-min Rain = 0
KSB1 010720Z 32021G26KT 06/M22 A3007 RMK A01 T00621216  RH  012%=      5-min Rain = 0
KSB1 010721Z 32021KT 06/M22 A3007 RMK A01 T00631217  RH  011%=      5-min Rain = 0
KSB1 010722Z 31020G29KT 06/M22 A3007 RMK A01 T00631218  RH  011%=      5-min Rain = 0
KSB1 010723Z 32019G26KT 06/M22 A3007 RMK A01 T00631219  RH  011%=      5-min Rain = 0
KSB1 010724Z 32018KT 06/M22 A3007 RMK A01 T00631219  RH  011%=      5-min Rain = 0
KSB1 010725Z 31022G27KT 06/M22 A3007 RMK A01 T00631219  RH  011%=      5-min Rain = 0
KSB1 010726Z 32021G26KT 06/M22 A3007 RMK A01 T00631219  RH  011%=      5-min Rain = 0
KSB1 010727Z 31022G29KT 06/M22 A3007 RMK A01 T00621219  RH  011%=      5-min Rain = 0
KSB1 010728Z 31019G26KT 06/M22 A3007 RMK A01 T00621220  RH  011%=      5-min Rain = 0
KSB1 010729Z 31022G29KT 06/M22 A3007 RMK A01 T00621221  RH  011%=      5-min Rain = 0
KSB1 010730Z 31022G28KT 06/M22 A3007 RMK A01 T00611222  RH  011%=      5-min Rain = 0
KSB1 010731Z 31022KT 06/M22 A3007 RMK A01 T00611222  RH  011%=      5-min Rain = 0
KSB1 010732Z 31019KT 06/M22 A3007 RMK A01 T00601224  RH  011%=      5-min Rain = 0
KSB1 010733Z 31020KT 06/M23 A3007 RMK A01 T00591225  RH  011%=      5-min Rain = 0
KSB1 010734Z 31019G25KT 06/M23 A3007 RMK A01 T00581226  RH  011%=      5-min Rain = 0
KSB1 010735Z 31018KT 06/M23 A3007 RMK A01 T00581227  RH  011%=      5-min Rain = 0
KSB1 010736Z 31019G24KT 06/M23 A3007 RMK A01 T00571228  RH  011%=      5-min Rain = 0
KSB1 010737Z 31021KT 06/M23 A3007 RMK A01 T00561229  RH  011%=      5-min Rain = 0
KSB1 010738Z 31020G25KT 06/M23 A3007 RMK A01 T00571228  RH  011%=      5-min Rain = 0
KSB1 010739Z 31020KT 06/M23 A3007 RMK A01 T00561228  RH  011%=      5-min Rain = 0
KSB1 010740Z 31017G24KT 06/M23 A3007 RMK A01 T00561228  RH  011%=      5-min Rain = 0
KSB1 010741Z 30020KT 06/M23 A3007 RMK A01 T00561228  RH  011%=      5-min Rain = 0
KSB1 010742Z 30017KT 06/M23 A3007 RMK A01 T00551228  RH  011%=      5-min Rain = 0
KSB1 010743Z 31019G24KT 06/M23 A3007 RMK A01 T00551228  RH  011%=      5-min Rain = 0
KSB1 010744Z 31019KT 06/M23 A3007 RMK A01 T00551228  RH  011%=      5-min Rain = 0
KSB1 010745Z 31017G23KT 05/M23 A3007 RMK A01 T00541228  RH  011%=      5-min Rain = 0
KSB1 010746Z 31016KT 05/M23 A3008 RMK A01 T00531228  RH  011%=      5-min Rain = 0
KSB1 010747Z 31020KT 05/M23 A3007 RMK A01 T00531227  RH  011%=      5-min Rain = 0
KSB1 010748Z 31020KT 05/M23 A3008 RMK A01 T00531227  RH  011%=      5-min Rain = 0
KSB1 010749Z 31018KT 05/M23 A3008 RMK A01 T00531227  RH  011%=      5-min Rain = 0
KSB1 010750Z 31017KT 05/M23 A3008 RMK A01 T00531227  RH  011%=      5-min Rain = 0
KSB1 010751Z 30015G21KT 05/M23 A3008 RMK A01 T00531227  RH  011%=      5-min Rain = 0
KSB1 010752Z 31018G25KT 05/M23 A3007 RMK A01 T00521227  RH  011%=      5-min Rain = 0
KSB1 010753Z 32020G25KT 05/M23 A3007 RMK A01 T00521226  RH  011%=      5-min Rain = 0
KSB1 010754Z 31018KT 05/M23 A3008 RMK A01 T00521226  RH  011%=      5-min Rain = 0
KSB1 010755Z 31018G26KT 05/M23 A3008 RMK A01 T00521226  RH  011%=      5-min Rain = 0
KSB1 010756Z 31020G25KT 05/M23 A3008 RMK A01 T00531225  RH  011%=      5-min Rain = 0
KSB1 010757Z 30018G23KT 05/M23 A3008 RMK A01 T00521225  RH  011%=      5-min Rain = 0
KSB1 010758Z 31018KT 05/M23 A3008 RMK A01 T00511225  RH  011%=      5-min Rain = 0
KSB1 010759Z 31016KT 05/M23 A3008 RMK A01 T00511225  RH  011%=      5-min Rain = 0
KSB1 010800Z 30015G21KT 05/M23 A3009 RMK A01 T00501225  RH  012%=      5-min Rain = 0
KSB1 010801Z 31020KT 05/M22 A3009 RMK A01 T00501224  RH  012%=      5-min Rain = 0
KSB1 010802Z 32022KT 05/M22 A3008 RMK A01 T00501224  RH  012%=      5-min Rain = 0
KSB1 010803Z 31019KT 05/M22 A3009 RMK A01 T00511224  RH  012%=      5-min Rain = 0
KSB1 010804Z 31019KT 05/M22 A3009 RMK A01 T00511224  RH  012%=      5-min Rain = 0
KSB1 010805Z 32020G26KT 05/M22 A3009 RMK A01 T00521223  RH  012%=      5-min Rain = 0
KSB1 010806Z 31021KT 05/M22 A3009 RMK A01 T00511223  RH  012%=      5-min Rain = 0
KSB1 010807Z 31017G23KT 05/M22 A3009 RMK A01 T00511224  RH  012%=      5-min Rain = 0
KSB1 010808Z 32014G19KT 05/M22 A301 RMK A01 T00511224  RH  012%=      5-min Rain = 0
KSB1 010809Z 32014G20KT 05/M22 A301 RMK A01 T00501223  RH  012%=      5-min Rain = 0
KSB1 010810Z 33015G21KT 05/M22 A301 RMK A01 T00491223  RH  012%=      5-min Rain = 0
KSB1 010811Z 33014KT 05/M22 A301 RMK A01 T00491221  RH  012%=      5-min Rain = 0
KSB1 010812Z 33014G20KT 05/M22 A301 RMK A01 T00491221  RH  012%=      5-min Rain = 0
KSB1 010813Z 34008KT 05/M22 A301 RMK A01 T00481220  RH  012%=      5-min Rain = 0
KSB1 010814Z 01007KT 05/M22 A301 RMK A01 T00481220  RH  012%=      5-min Rain = 0
KSB1 010815Z 05006KT 05/M22 A3011 RMK A01 T00461221  RH  012%=      5-min Rain = 0
KSB1 010816Z 06006KT 05/M22 A3011 RMK A01 T00451220  RH  013%=      5-min Rain = 0
KSB1 010817Z 09005KT 04/M22 A3011 RMK A01 T00421221  RH  013%=      5-min Rain = 0
KSB1 010818Z 11005KT 04/M22 A3011 RMK A01 T00391221  RH  013%=      5-min Rain = 0
KSB1 010819Z 10007KT 04/M22 A3011 RMK A01 T00381221  RH  013%=      5-min Rain = 0
KSB1 010820Z 11006KT 04/M22 A3011 RMK A01 T00371220  RH  013%=      5-min Rain = 0
KSB1 010821Z 09005KT 04/M22 A3011 RMK A01 T00361220  RH  013%=      5-min Rain = 0
KSB1 010822Z 08004KT 04/M22 A3011 RMK A01 T00361219  RH  013%=      5-min Rain = 0
KSB1 010823Z 10005KT 04/M22 A3011 RMK A01 T00351219  RH  014%=      5-min Rain = 0
KSB1 010824Z 08005KT 03/M22 A3011 RMK A01 T00341219  RH  014%=      5-min Rain = 0
KSB1 010825Z 07006KT 03/M22 A3011 RMK A01 T00341218  RH  014%=      5-min Rain = 0
KSB1 010826Z 04007KT 03/M22 A3011 RMK A01 T00341217  RH  014%=      5-min Rain = 0
KSB1 010827Z 03004KT 04/M22 A3011 RMK A01 T00361217  RH  014%=      5-min Rain = 0
KSB1 010828Z 05006G11KT 04/M22 A3011 RMK A01 T00381217  RH  013%=      5-min Rain = 0
KSB1 010829Z 04008KT 04/M22 A3011 RMK A01 T00391217  RH  013%=      5-min Rain = 0
KSB1 010830Z 04007KT 04/M22 A3011 RMK A01 T00391217  RH  013%=      5-min Rain = 0
KSB1 010831Z 02007KT 04/M22 A3011 RMK A01 T00391218  RH  013%=      5-min Rain = 0
KSB1 010832Z 36007KT 04/M22 A3011 RMK A01 T00401217  RH  013%=      5-min Rain = 0
KSB1 010833Z 32008KT 04/M22 A3012 RMK A01 T00391217  RH  013%=      5-min Rain = 0
KSB1 010834Z 32007KT 04/M22 A3011 RMK A01 T00411216  RH  013%=      5-min Rain = 0
KSB1 010835Z 32007KT 04/M22 A3011 RMK A01 T00431216  RH  013%=      5-min Rain = 0
KSB1 010836Z 33006KT 04/M22 A3012 RMK A01 T00441216  RH  013%=      5-min Rain = 0
KSB1 010837Z 30005KT 04/M22 A3012 RMK A01 T00441216  RH  013%=      5-min Rain = 0
KSB1 010838Z 32007KT 04/M22 A3012 RMK A01 T00441215  RH  013%=      5-min Rain = 0
KSB1 010839Z 31009G15KT 04/M22 A3012 RMK A01 T00441215  RH  013%=      5-min Rain = 0
KSB1 010840Z 33010KT 04/M21 A3012 RMK A01 T00431214  RH  013%=      5-min Rain = 0
KSB1 010841Z 32009KT 04/M21 A3012 RMK A01 T00431213  RH  014%=      5-min Rain = 0
KSB1 010842Z 30010KT 04/M21 A3011 RMK A01 T00421213  RH  014%=      5-min Rain = 0
KSB1 010843Z 32009KT 04/M21 A3011 RMK A01 T00421213  RH  014%=      5-min Rain = 0
KSB1 010844Z 32011KT 04/M21 A3011 RMK A01 T00431212  RH  014%=      5-min Rain = 0
KSB1 010845Z 33010KT 04/M21 A3011 RMK A01 T00431211  RH  014%=      5-min Rain = 0
KSB1 010846Z 33008KT 04/M21 A3011 RMK A01 T00441211  RH  014%=      5-min Rain = 0
KSB1 010847Z 33010KT 04/M21 A3011 RMK A01 T00441211  RH  014%=      5-min Rain = 0
KSB1 010848Z 33010KT 05/M21 A3012 RMK A01 T00451210  RH  014%=      5-min Rain = 0
KSB1 010849Z 33007KT 04/M21 A3012 RMK A01 T00441210  RH  014%=      5-min Rain = 0
KSB1 010850Z 34007KT 04/M21 A3012 RMK A01 T00441210  RH  014%=      5-min Rain = 0
KSB1 010851Z 36007KT 04/M21 A3012 RMK A01 T00431209  RH  014%=      5-min Rain = 0
KSB1 010852Z 35008KT 04/M21 A3012 RMK A01 T00431209  RH  014%=      5-min Rain = 0
KSB1 010853Z 34009KT 04/M21 A3012 RMK A01 T00421209  RH  014%=      5-min Rain = 0
KSB1 010854Z 34009KT 04/M21 A3013 RMK A01 T00421210  RH  014%=      5-min Rain = 0
KSB1 010855Z 35009KT 04/M21 A3012 RMK A01 T00431210  RH  014%=      5-min Rain = 0
KSB1 010856Z 33010KT 04/M21 A3012 RMK A01 T00421209  RH  014%=      5-min Rain = 0
KSB1 010857Z 32006KT 04/M21 A3012 RMK A01 T00421208  RH  014%=      5-min Rain = 0
KSB1 010858Z 31005KT 04/M21 A3012 RMK A01 T00431207  RH  014%=      5-min Rain = 0
KSB1 010859Z 29005KT 04/M21 A3013 RMK A01 T00431207  RH  014%=      5-min Rain = 0
KSB1 010900Z 27004KT 04/M21 A3013 RMK A01 T00441208  RH  014%=      5-min Rain = 0
KSB1 010901Z 28007KT 04/M21 A3013 RMK A01 T00441208  RH  014%=      5-min Rain = 0
KSB1 010902Z 28008KT 04/M21 A3013 RMK A01 T00431207  RH  014%=      5-min Rain = 0
KSB1 010903Z 29009KT 04/M21 A3013 RMK A01 T00441207  RH  014%=      5-min Rain = 0
KSB1 010904Z 28009KT 04/M21 A3013 RMK A01 T00441206  RH  014%=      5-min Rain = 0
KSB1 010905Z 28009KT 04/M21 A3013 RMK A01 T00441207  RH  014%=      5-min Rain = 0
KSB1 010906Z 29011KT 04/M21 A3013 RMK A01 T00431207  RH  014%=      5-min Rain = 0
KSB1 010907Z 31010KT 04/M21 A3013 RMK A01 T00431206  RH  014%=      5-min Rain = 0
KSB1 010908Z 29007KT 04/M21 A3013 RMK A01 T00441206  RH  014%=      5-min Rain = 0
KSB1 010909Z 30007KT 04/M21 A3013 RMK A01 T00441207  RH  014%=      5-min Rain = 0
KSB1 010910Z 29008KT 04/M21 A3013 RMK A01 T00431206  RH  014%=      5-min Rain = 0
KSB1 010911Z 28010KT 04/M21 A3013 RMK A01 T00441208  RH  014%=      5-min Rain = 0
KSB1 010912Z 28011KT 05/M21 A3013 RMK A01 T00451206  RH  014%=      5-min Rain = 0
KSB1 010913Z 29010KT 05/M20 A3013 RMK A01 T00451203  RH  015%=      5-min Rain = 0
KSB1 010914Z 28010KT 05/M20 A3013 RMK A01 T00451201  RH  015%=      5-min Rain = 0
KSB1 010915Z 28011KT 04/M20 A3014 RMK A01 T00441202  RH  015%=      5-min Rain = 0
KSB1 010916Z 28012KT 04/M20 A3013 RMK A01 T00431201  RH  015%=      5-min Rain = 0
KSB1 010917Z 30010KT 04/M20 A3013 RMK A01 T00431199  RH  015%=      5-min Rain = 0
KSB1 010918Z 29010KT 04/M20 A3013 RMK A01 T00431198  RH  015%=      5-min Rain = 0
KSB1 010919Z 30010KT 04/M20 A3013 RMK A01 T00431198  RH  015%=      5-min Rain = 0
KSB1 010920Z 30012KT 04/M20 A3013 RMK A01 T00431197  RH  015%=      5-min Rain = 0
KSB1 010921Z 31011KT 04/M20 A3013 RMK A01 T00431196  RH  016%=      5-min Rain = 0
KSB1 010922Z 31010KT 04/M20 A3013 RMK A01 T00441195  RH  016%=      5-min Rain = 0
KSB1 010923Z 30011KT 04/M20 A3013 RMK A01 T00431196  RH  016%=      5-min Rain = 0
KSB1 010924Z 30012KT 04/M20 A3014 RMK A01 T00441195  RH  016%=      5-min Rain = 0
KSB1 010925Z 31012KT 04/M20 A3014 RMK A01 T00431195  RH  016%=      5-min Rain = 0
KSB1 010926Z 31010KT 04/M20 A3014 RMK A01 T00431196  RH  016%=      5-min Rain = 0
KSB1 010927Z 31010KT 04/M20 A3014 RMK A01 T00431195  RH  016%=      5-min Rain = 0
KSB1 010928Z 31011KT 04/M20 A3014 RMK A01 T00421195  RH  016%=      5-min Rain = 0
KSB1 010929Z 30012KT 04/M20 A3014 RMK A01 T00421195  RH  016%=      5-min Rain = 0
KSB1 010930Z 30012KT 04/M19 A3014 RMK A01 T00411194  RH  016%=      5-min Rain = 0
KSB1 010931Z 31011KT 04/M19 A3014 RMK A01 T00411194  RH  016%=      5-min Rain = 0
KSB1 010932Z 31012KT 04/M20 A3014 RMK A01 T00411195  RH  016%=      5-min Rain = 0
KSB1 010933Z 31009KT 04/M20 A3014 RMK A01 T00411195  RH  016%=      5-min Rain = 0
KSB1 010934Z 29009KT 04/M20 A3014 RMK A01 T00391195  RH  016%=      5-min Rain = 0
KSB1 010935Z 29010KT 04/M20 A3014 RMK A01 T00391195  RH  016%=      5-min Rain = 0
KSB1 010936Z 30009KT 04/M20 A3014 RMK A01 T00391195  RH  016%=      5-min Rain = 0
KSB1 010937Z 30008KT 04/M20 A3014 RMK A01 T00391195  RH  016%=      5-min Rain = 0
KSB1 010938Z 29009KT 04/M19 A3014 RMK A01 T00391194  RH  016%=      5-min Rain = 0
KSB1 010939Z 29010KT 04/M19 A3015 RMK A01 T00381194  RH  016%=      5-min Rain = 0
KSB1 010940Z 29008KT 04/M19 A3015 RMK A01 T00381194  RH  017%=      5-min Rain = 0
KSB1 010941Z 29009KT 04/M19 A3015 RMK A01 T00381193  RH  017%=      5-min Rain = 0
KSB1 010942Z 29008KT 04/M19 A3015 RMK A01 T00391193  RH  017%=      5-min Rain = 0
KSB1 010943Z 29010KT 04/M19 A3015 RMK A01 T00391193  RH  016%=      5-min Rain = 0
KSB1 010944Z 30010KT 04/M19 A3015 RMK A01 T00391193  RH  016%=      5-min Rain = 0
KSB1 010945Z 30009KT 04/M19 A3015 RMK A01 T00391193  RH  016%=      5-min Rain = 0
KSB1 010946Z 30009KT 04/M19 A3015 RMK A01 T00391194  RH  016%=      5-min Rain = 0
KSB1 010947Z 30009KT 04/M19 A3015 RMK A01 T00381194  RH  017%=      5-min Rain = 0
KSB1 010948Z 31007KT 04/M19 A3015 RMK A01 T00381193  RH  017%=      5-min Rain = 0
KSB1 010949Z 31007KT 04/M19 A3015 RMK A01 T00371194  RH  017%=      5-min Rain = 0
KSB1 010950Z 30006KT 04/M19 A3015 RMK A01 T00361193  RH  017%=      5-min Rain = 0
KSB1 010951Z 30007KT 04/M19 A3015 RMK A01 T00351193  RH  017%=      5-min Rain = 0
KSB1 010952Z 30007KT 04/M19 A3015 RMK A01 T00351193  RH  017%=      5-min Rain = 0
KSB1 010953Z 30008KT 04/M19 A3015 RMK A01 T00351193  RH  017%=      5-min Rain = 0
KSB1 010954Z 30008KT 03/M19 A3015 RMK A01 T00341193  RH  017%=      5-min Rain = 0
KSB1 010955Z 30008KT 03/M19 A3015 RMK A01 T00341193  RH  017%=      5-min Rain = 0
KSB1 010956Z 30009KT 03/M19 A3015 RMK A01 T00341193  RH  017%=      5-min Rain = 0
KSB1 010957Z 30009KT 03/M19 A3015 RMK A01 T00341193  RH  017%=      5-min Rain = 0
KSB1 010958Z 30009KT 03/M19 A3015 RMK A01 T00341193  RH  017%=      5-min Rain = 0
KSB1 010959Z 30009KT 03/M19 A3015 RMK A01 T00341193  RH  017%=      5-min Rain = 0
KSB1 011000Z 31008KT 03/M19 A3015 RMK A01 T00341192  RH  017%=      5-min Rain = 0
KSB1 011001Z 32009KT 03/M19 A3015 RMK A01 T00331192  RH  017%=      5-min Rain = 0
KSB1 011002Z 33008KT 03/M19 A3015 RMK A01 T00331192  RH  017%=      5-min Rain = 0
KSB1 011003Z 31008KT 03/M19 A3015 RMK A01 T00311192  RH  018%=      5-min Rain = 0
KSB1 011004Z 30008KT 03/M19 A3016 RMK A01 T00301192  RH  018%=      5-min Rain = 0
KSB1 011005Z 30009KT 03/M19 A3015 RMK A01 T00291192  RH  018%=      5-min Rain = 0
KSB1 011006Z 30009KT 03/M19 A3016 RMK A01 T00281193  RH  018%=      5-min Rain = 0
KSB1 011007Z 29008KT 03/M19 A3016 RMK A01 T00281193  RH  018%=      5-min Rain = 0
KSB1 011008Z 29008KT 03/M19 A3016 RMK A01 T00271192  RH  018%=      5-min Rain = 0
KSB1 011009Z 30009KT 03/M19 A3016 RMK A01 T00271192  RH  018%=      5-min Rain = 0
KSB1 011010Z 32009KT 03/M19 A3016 RMK A01 T00281192  RH  018%=      5-min Rain = 0
KSB1 011011Z 32009KT 03/M19 A3016 RMK A01 T00281192  RH  018%=      5-min Rain = 0
KSB1 011012Z 32010KT 03/M19 A3016 RMK A01 T00291192  RH  018%=      5-min Rain = 0
KSB1 011013Z 33010KT 03/M19 A3016 RMK A01 T00291192  RH  018%=      5-min Rain = 0
KSB1 011014Z 33007KT 03/M19 A3016 RMK A01 T00291192  RH  018%=      5-min Rain = 0
KSB1 011015Z 33008KT 03/M19 A3016 RMK A01 T00281192  RH  018%=      5-min Rain = 0
KSB1 011016Z 32008KT 03/M19 A3016 RMK A01 T00261193  RH  018%=      5-min Rain = 0
KSB1 011017Z 31008KT 03/M19 A3016 RMK A01 T00261192  RH  018%=      5-min Rain = 0
KSB1 011018Z 30009KT 03/M19 A3017 RMK A01 T00261192  RH  018%=      5-min Rain = 0
KSB1 011019Z 31008KT 03/M19 A3017 RMK A01 T00261192  RH  018%=      5-min Rain = 0
KSB1 011020Z 31008KT 03/M19 A3017 RMK A01 T00261192  RH  018%=      5-min Rain = 0
KSB1 011021Z 32009KT 03/M19 A3016 RMK A01 T00271191  RH  018%=      5-min Rain = 0
KSB1 011022Z 32009KT 03/M19 A3016 RMK A01 T00281191  RH  018%=      5-min Rain = 0
KSB1 011023Z 32010KT 03/M19 A3016 RMK A01 T00291191  RH  018%=      5-min Rain = 0
KSB1 011024Z 32008KT 03/M19 A3016 RMK A01 T00311190  RH  018%=      5-min Rain = 0
KSB1 011025Z 32010KT 03/M19 A3016 RMK A01 T00311191  RH  018%=      5-min Rain = 0
KSB1 011026Z 31009KT 03/M19 A3017 RMK A01 T00311191  RH  018%=      5-min Rain = 0
KSB1 011027Z 32009KT 03/M19 A3017 RMK A01 T00311191  RH  018%=      5-min Rain = 0
KSB1 011028Z 32010KT 03/M19 A3017 RMK A01 T00311191  RH  018%=      5-min Rain = 0
KSB1 011029Z 32009KT 03/M19 A3017 RMK A01 T00321190  RH  018%=      5-min Rain = 0
KSB1 011030Z 32009KT 03/M19 A3017 RMK A01 T00311191  RH  018%=      5-min Rain = 0
KSB1 011031Z 32008KT 03/M19 A3017 RMK A01 T00311190  RH  018%=      5-min Rain = 0
KSB1 011032Z 32008KT 03/M19 A3017 RMK A01 T00301191  RH  018%=      5-min Rain = 0
KSB1 011033Z 32008KT 03/M19 A3016 RMK A01 T00291191  RH  018%=      5-min Rain = 0
KSB1 011034Z 32008KT 03/M19 A3016 RMK A01 T00291190  RH  018%=      5-min Rain = 0
KSB1 011035Z 32009KT 03/M19 A3016 RMK A01 T00281191  RH  018%=      5-min Rain = 0
KSB1 011036Z 33009KT 03/M19 A3016 RMK A01 T00271191  RH  018%=      5-min Rain = 0
KSB1 011037Z 33008KT 03/M19 A3016 RMK A01 T00271190  RH  018%=      5-min Rain = 0
KSB1 011038Z 33008KT 03/M19 A3016 RMK A01 T00271191  RH  018%=      5-min Rain = 0
KSB1 011039Z 33008KT 03/M19 A3016 RMK A01 T00271190  RH  018%=      5-min Rain = 0
KSB1 011040Z 32007KT 03/M19 A3016 RMK A01 T00271190  RH  018%=      5-min Rain = 0
KSB1 011041Z 32007KT 03/M19 A3016 RMK A01 T00261190  RH  019%=      5-min Rain = 0
KSB1 011042Z 32008KT 03/M19 A3016 RMK A01 T00251190  RH  019%=      5-min Rain = 0
KSB1 011043Z 31008KT 03/M19 A3016 RMK A01 T00251190  RH  019%=      5-min Rain = 0
KSB1 011044Z 32009KT 02/M19 A3016 RMK A01 T00241190  RH  019%=      5-min Rain = 0
KSB1 011045Z 32010KT 03/M19 A3016 RMK A01 T00251190  RH  019%=      5-min Rain = 0
KSB1 011046Z 31009KT 03/M19 A3016 RMK A01 T00251190  RH  019%=      5-min Rain = 0
KSB1 011047Z 31009KT 03/M19 A3017 RMK A01 T00251190  RH  019%=      5-min Rain = 0
KSB1 011048Z 31010KT 03/M19 A3017 RMK A01 T00251190  RH  019%=      5-min Rain = 0
KSB1 011049Z 31011KT 03/M19 A3017 RMK A01 T00251190  RH  019%=      5-min Rain = 0
KSB1 011050Z 31010KT 03/M19 A3017 RMK A01 T00251190  RH  019%=      5-min Rain = 0
KSB1 011051Z 32009KT 03/M19 A3016 RMK A01 T00251190  RH  019%=      5-min Rain = 0
KSB1 011052Z 32009KT 03/M19 A3016 RMK A01 T00251189  RH  019%=      5-min Rain = 0
KSB1 011053Z 32010KT 03/M19 A3016 RMK A01 T00251190  RH  019%=      5-min Rain = 0
KSB1 011054Z 32010KT 02/M19 A3016 RMK A01 T00241190  RH  019%=      5-min Rain = 0
KSB1 011055Z 32011KT 03/M19 A3016 RMK A01 T00251190  RH  019%=      5-min Rain = 0
KSB1 011056Z 32012KT 02/M19 A3016 RMK A01 T00241190  RH  019%=      5-min Rain = 0
KSB1 011057Z 32010KT 03/M19 A3016 RMK A01 T00251190  RH  019%=      5-min Rain = 0
KSB1 011058Z 32010KT 03/M19 A3017 RMK A01 T00261190  RH  019%=      5-min Rain = 0
KSB1 011059Z 31010KT 03/M19 A3017 RMK A01 T00261190  RH  019%=      5-min Rain = 0
KSB1 011100Z 31009KT 03/M19 A3017 RMK A01 T00261190  RH  019%=      5-min Rain = 0
KSB1 011101Z 31010KT 03/M19 A3017 RMK A01 T00261190  RH  019%=      5-min Rain = 0
KSB1 011102Z 32009KT 03/M19 A3017 RMK A01 T00261190  RH  019%=      5-min Rain = 0
KSB1 011103Z 32009KT 03/M19 A3017 RMK A01 T00271190  RH  018%=      5-min Rain = 0
KSB1 011104Z 32011KT 03/M19 A3017 RMK A01 T00281190  RH  018%=      5-min Rain = 0
KSB1 011105Z 31010KT 03/M19 A3017 RMK A01 T00281190  RH  018%=      5-min Rain = 0
KSB1 011106Z 31009KT 03/M19 A3017 RMK A01 T00281190  RH  018%=      5-min Rain = 0
KSB1 011107Z 31009KT 03/M19 A3017 RMK A01 T00291190  RH  018%=      5-min Rain = 0
KSB1 011108Z 31009KT 03/M19 A3017 RMK A01 T00281190  RH  018%=      5-min Rain = 0
KSB1 011109Z 31010KT 03/M19 A3017 RMK A01 T00281189  RH  018%=      5-min Rain = 0
KSB1 011110Z 32011KT 03/M19 A3017 RMK A01 T00281190  RH  018%=      5-min Rain = 0
KSB1 011111Z 31012KT 03/M19 A3017 RMK A01 T00281189  RH  018%=      5-min Rain = 0
KSB1 011112Z 31010KT 03/M19 A3017 RMK A01 T00291190  RH  018%=      5-min Rain = 0
KSB1 011113Z 31010KT 03/M19 A3018 RMK A01 T00281190  RH  018%=      5-min Rain = 0
KSB1 011114Z 31010KT 03/M19 A3018 RMK A01 T00271190  RH  018%=      5-min Rain = 0
KSB1 011115Z 31010KT 03/M19 A3018 RMK A01 T00271190  RH  019%=      5-min Rain = 0
KSB1 011116Z 31010KT 03/M19 A3018 RMK A01 T00261190  RH  019%=      5-min Rain = 0
KSB1 011117Z 30012KT 03/M19 A3018 RMK A01 T00281189  RH  019%=      5-min Rain = 0
KSB1 011118Z 30013KT 03/M19 A3018 RMK A01 T00291189  RH  018%=      5-min Rain = 0
KSB1 011119Z 30011KT 03/M19 A3018 RMK A01 T00301189  RH  018%=      5-min Rain = 0
KSB1 011120Z 31010KT 03/M19 A3018 RMK A01 T00311189  RH  018%=      5-min Rain = 0
KSB1 011121Z 31011KT 03/M19 A3018 RMK A01 T00311189  RH  018%=      5-min Rain = 0
KSB1 011122Z 31010KT 03/M19 A3018 RMK A01 T00301190  RH  018%=      5-min Rain = 0
KSB1 011123Z 31010KT 03/M19 A3018 RMK A01 T00301189  RH  018%=      5-min Rain = 0
KSB1 011124Z 31010KT 03/M19 A3018 RMK A01 T00301189  RH  018%=      5-min Rain = 0
KSB1 011125Z 31011KT 03/M19 A3018 RMK A01 T00291190  RH  018%=      5-min Rain = 0
KSB1 011126Z 31011KT 03/M19 A3018 RMK A01 T00301189  RH  018%=      5-min Rain = 0
KSB1 011127Z 31010KT 03/M19 A3018 RMK A01 T00291190  RH  018%=      5-min Rain = 0
KSB1 011128Z 31011KT 03/M19 A3018 RMK A01 T00301189  RH  018%=      5-min Rain = 0
KSB1 011129Z 31008KT 03/M19 A3019 RMK A01 T00291190  RH  018%=      5-min Rain = 0
KSB1 011130Z 31010KT 03/M19 A3019 RMK A01 T00291189  RH  018%=      5-min Rain = 0
KSB1 011131Z 31010KT 03/M19 A3019 RMK A01 T00291190  RH  018%=      5-min Rain = 0
KSB1 011132Z 31010KT 03/M19 A3019 RMK A01 T00281189  RH  018%=      5-min Rain = 0
KSB1 011133Z 31009KT 03/M19 A3019 RMK A01 T00291189  RH  018%=      5-min Rain = 0
KSB1 011134Z 32008KT 03/M19 A3019 RMK A01 T00291190  RH  018%=      5-min Rain = 0
KSB1 011135Z 33007KT 03/M19 A3019 RMK A01 T00291190  RH  018%=      5-min Rain = 0
KSB1 011136Z 32009KT 03/M19 A3019 RMK A01 T00281190  RH  018%=      5-min Rain = 0
KSB1 011137Z 33009KT 03/M19 A3019 RMK A01 T00291190  RH  018%=      5-min Rain = 0
KSB1 011138Z 32009KT 03/M19 A3019 RMK A01 T00301190  RH  018%=      5-min Rain = 0
KSB1 011139Z 32007KT 03/M19 A3019 RMK A01 T00301190  RH  018%=      5-min Rain = 0
KSB1 011140Z 33007KT 03/M19 A3019 RMK A01 T00301190  RH  018%=      5-min Rain = 0
KSB1 011141Z 32008KT 03/M19 A3019 RMK A01 T00291191  RH  018%=      5-min Rain = 0
KSB1 011142Z 33007KT 03/M19 A3019 RMK A01 T00291190  RH  018%=      5-min Rain = 0
KSB1 011143Z 33008KT 03/M19 A3019 RMK A01 T00291190  RH  018%=      5-min Rain = 0
KSB1 011144Z 34007KT 03/M19 A3019 RMK A01 T00281191  RH  018%=      5-min Rain = 0
KSB1 011145Z 34006KT 03/M19 A3019 RMK A01 T00281191  RH  018%=      5-min Rain = 0
KSB1 011146Z 33006KT 03/M19 A302 RMK A01 T00261190  RH  019%=      5-min Rain = 0
KSB1 011147Z 33007KT 02/M19 A302 RMK A01 T00231190  RH  019%=      5-min Rain = 0
KSB1 011148Z 32007KT 02/M19 A302 RMK A01 T00211190  RH  019%=      5-min Rain = 0
KSB1 011149Z 32008KT 02/M19 A302 RMK A01 T00201189  RH  020%=      5-min Rain = 0
KSB1 011150Z 31007KT 02/M19 A302 RMK A01 T00191189  RH  020%=      5-min Rain = 0
KSB1 011151Z 31007KT 02/M19 A302 RMK A01 T00191188  RH  020%=      5-min Rain = 0
KSB1 011152Z 31008KT 02/M19 A302 RMK A01 T00211188  RH  020%=      5-min Rain = 0
KSB1 011153Z 31008KT 02/M19 A302 RMK A01 T00221188  RH  020%=      5-min Rain = 0
KSB1 011154Z 31008KT 02/M19 A302 RMK A01 T00231188  RH  019%=      5-min Rain = 0
KSB1 011155Z 31007KT 02/M19 A302 RMK A01 T00241187  RH  019%=      5-min Rain = 0
KSB1 011156Z 31007KT 03/M19 A302 RMK A01 T00251187  RH  019%=      5-min Rain = 0
KSB1 011157Z 32006KT 03/M18 A302 RMK A01 T00251183  RH  020%=      5-min Rain = 0
KSB1 011158Z 30006KT 03/M18 A302 RMK A01 T00261175  RH  021%=      5-min Rain = 0
KSB1 011159Z 29006KT 03/M17 A302 RMK A01 T00271171  RH  022%=      5-min Rain = 0
KSB1 011200Z 29007KT 03/M17 A302 RMK A01 T00271174  RH  021%=      5-min Rain = 0
KSB1 011201Z 30007KT 03/M18 A302 RMK A01 T00271177  RH  021%=      5-min Rain = 0
KSB1 011202Z 30006KT 03/M18 A302 RMK A01 T00281178  RH  020%=      5-min Rain = 0
KSB1 011203Z 30006KT 03/M18 A302 RMK A01 T00291179  RH  020%=      5-min Rain = 0
KSB1 011204Z 30005KT 03/M18 A3021 RMK A01 T00301182  RH  019%=      5-min Rain = 0
KSB1 011205Z 31004KT 03/M18 A3021 RMK A01 T00311184  RH  019%=      5-min Rain = 0
KSB1 011206Z 00003KT 03/M19 A3021 RMK A01 T00321186  RH  018%=      5-min Rain = 0
KSB1 011207Z 08006KT 03/M18 A3021 RMK A01 T00291183  RH  019%=      5-min Rain = 0
KSB1 011208Z 07005KT 02/M19 A3021 RMK A01 T00211187  RH  020%=      5-min Rain = 0
KSB1 011209Z 09003KT 02/M19 A3021 RMK A01 T00151188  RH  020%=      5-min Rain = 0
KSB1 011210Z 13003KT 01/M19 A3021 RMK A01 T00111188  RH  021%=      5-min Rain = 0
KSB1 011211Z 18002KT 01/M19 A3021 RMK A01 T00071188  RH  022%=      5-min Rain = 0
KSB1 011212Z 18002KT 00/M19 A3021 RMK A01 T00041188  RH  022%=      5-min Rain = 0
KSB1 011213Z 18002KT 00/M19 A3022 RMK A01 T00021188  RH  022%=      5-min Rain = 0
KSB1 011214Z 15002KT 00/M19 A3021 RMK A01 T00011188  RH  023%=      5-min Rain = 0
KSB1 011215Z 14002KT 00/19 A3021 RMK A01 T00-00-187  RH  023%=      5-min Rain = 0
KSB1 011216Z 14000KT M00/M19 A3021 RMK A01 T10011187  RH  023%=      5-min Rain = 0
KSB1 011217Z 00000KT M00/M19 A3021 RMK A01 T10011187  RH  023%=      5-min Rain = 0
KSB1 011218Z 00000KT M00/M19 A3021 RMK A01 T10011186  RH  023%=      5-min Rain = 0
KSB1 011219Z 28002KT 00/19 A3021 RMK A01 T00-00-186  RH  023%=      5-min Rain = 0
KSB1 011220Z 26002KT 00/M18 A3021 RMK A01 T00041183  RH  023%=      5-min Rain = 0
KSB1 011221Z 28003KT 01/M18 A3021 RMK A01 T00081182  RH  023%=      5-min Rain = 0
KSB1 011222Z 28004KT 01/M18 A3022 RMK A01 T00101183  RH  022%=      5-min Rain = 0
KSB1 011223Z 31004KT 01/M18 A3022 RMK A01 T00141179  RH  022%=      5-min Rain = 0
KSB1 011224Z 28004KT 02/M18 A3022 RMK A01 T00181175  RH  022%=      5-min Rain = 0
KSB1 011225Z 27004KT 02/M18 A3022 RMK A01 T00201177  RH  022%=      5-min Rain = 0
KSB1 011226Z 27005KT 02/M18 A3022 RMK A01 T00201178  RH  021%=      5-min Rain = 0
KSB1 011227Z 27004KT 02/M18 A3022 RMK A01 T00211177  RH  022%=      5-min Rain = 0
KSB1 011228Z 29004KT 02/M18 A3022 RMK A01 T00211178  RH  021%=      5-min Rain = 0
KSB1 011229Z 32006KT 02/M18 A3022 RMK A01 T00191179  RH  021%=      5-min Rain = 0
KSB1 011230Z 32007KT 02/M17 A3022 RMK A01 T00191172  RH  023%=      5-min Rain = 0
KSB1 011231Z 32007KT 02/M17 A3022 RMK A01 T00221166  RH  024%=      5-min Rain = 0
KSB1 011232Z 32007KT 02/M16 A3022 RMK A01 T00241159  RH  024%=      5-min Rain = 0
KSB1 011233Z 32005KT 03/M16 A3022 RMK A01 T00271160  RH  024%=      5-min Rain = 0
KSB1 011234Z 31003KT 03/M16 A3022 RMK A01 T00291163  RH  023%=      5-min Rain = 0
KSB1 011235Z 33001KT 03/M17 A3022 RMK A01 T00301166  RH  022%=      5-min Rain = 0
KSB1 011236Z 36000KT 03/M17 A3022 RMK A01 T00311167  RH  022%=      5-min Rain = 0
KSB1 011237Z 35002KT 03/M17 A3022 RMK A01 T00311167  RH  022%=      5-min Rain = 0
KSB1 011238Z 35003KT 03/M17 A3022 RMK A01 T00301169  RH  022%=      5-min Rain = 0
KSB1 011239Z 32001KT 03/M17 A3022 RMK A01 T00291169  RH  022%=      5-min Rain = 0
KSB1 011240Z 32003KT 03/M17 A3022 RMK A01 T00281170  RH  022%=      5-min Rain = 0
KSB1 011241Z 30004KT 03/M17 A3023 RMK A01 T00281172  RH  021%=      5-min Rain = 0
KSB1 011242Z 29004KT 03/M18 A3023 RMK A01 T00271176  RH  021%=      5-min Rain = 0
KSB1 011243Z 27003KT 03/M18 A3023 RMK A01 T00261179  RH  020%=      5-min Rain = 0
KSB1 011244Z 29004G9KT 02/M18 A3023 RMK A01 T00221180  RH  021%=      5-min Rain = 0
KSB1 011245Z 30008KT 02/M18 A3023 RMK A01 T00211183  RH  020%=      5-min Rain = 0
KSB1 011246Z 30008KT 02/M19 A3023 RMK A01 T00241186  RH  019%=      5-min Rain = 0
KSB1 011247Z 30010KT 03/M19 A3023 RMK A01 T00271187  RH  019%=      5-min Rain = 0
KSB1 011248Z 30010KT 03/M19 A3023 RMK A01 T00291189  RH  018%=      5-min Rain = 0
KSB1 011249Z 29008KT 03/M19 A3023 RMK A01 T00291190  RH  018%=      5-min Rain = 0
KSB1 011250Z 29009KT 03/M19 A3023 RMK A01 T00291190  RH  018%=      5-min Rain = 0
KSB1 011251Z 30008KT 03/M19 A3023 RMK A01 T00281191  RH  018%=      5-min Rain = 0
KSB1 011252Z 30008KT 03/M19 A3023 RMK A01 T00271190  RH  018%=      5-min Rain = 0
KSB1 011253Z 30007KT 03/M19 A3023 RMK A01 T00271190  RH  019%=      5-min Rain = 0
KSB1 011254Z 30009KT 03/M19 A3023 RMK A01 T00271188  RH  019%=      5-min Rain = 0
KSB1 011255Z 30009KT 03/M19 A3023 RMK A01 T00261187  RH  019%=      5-min Rain = 0
KSB1 011256Z 30008KT 03/M19 A3023 RMK A01 T00261188  RH  019%=      5-min Rain = 0
KSB1 011257Z 31010KT 03/M18 A3023 RMK A01 T00251184  RH  020%=      5-min Rain = 0
KSB1 011258Z 32010KT 02/M18 A3023 RMK A01 T00221175  RH  022%=      5-min Rain = 0
KSB1 011259Z 33010KT 02/M17 A3023 RMK A01 T00211168  RH  023%=      5-min Rain = 0
KSB1 011300Z 32008KT 02/M16 A3024 RMK A01 T00211164  RH  024%=      5-min Rain = 0
KSB1 011301Z 32007KT 02/M16 A3024 RMK A01 T00201163  RH  024%=      5-min Rain = 0
KSB1 011302Z 33007KT 02/M16 A3024 RMK A01 T00201162  RH  025%=      5-min Rain = 0
KSB1 011303Z 33007KT 02/M16 A3024 RMK A01 T00201160  RH  025%=      5-min Rain = 0
KSB1 011304Z 33008KT 02/M16 A3024 RMK A01 T00191158  RH  026%=      5-min Rain = 0
KSB1 011305Z 32009KT 02/M16 A3024 RMK A01 T00191156  RH  026%=      5-min Rain = 0
KSB1 011306Z 31009KT 02/M15 A3024 RMK A01 T00181154  RH  027%=      5-min Rain = 0
KSB1 011307Z 32009KT 02/M15 A3024 RMK A01 T00191153  RH  027%=      5-min Rain = 0
KSB1 011308Z 32009KT 02/M15 A3024 RMK A01 T00191153  RH  027%=      5-min Rain = 0
KSB1 011309Z 34006KT 02/M15 A3024 RMK A01 T00201153  RH  026%=      5-min Rain = 0
KSB1 011310Z 35005KT 02/M16 A3024 RMK A01 T00191155  RH  026%=      5-min Rain = 0
KSB1 011311Z 00006KT 01/M17 A3024 RMK A01 T00131165  RH  025%=      5-min Rain = 0
KSB1 011312Z 00006KT 01/M17 A3024 RMK A01 T00081169  RH  025%=      5-min Rain = 0
KSB1 011313Z 01006KT 01/M17 A3024 RMK A01 T00051169  RH  026%=      5-min Rain = 0
KSB1 011314Z 00006KT 00/M17 A3024 RMK A01 T00031167  RH  027%=      5-min Rain = 0
KSB1 011315Z 35005KT 00/M17 A3024 RMK A01 T00021165  RH  027%=      5-min Rain = 0
KSB1 011316Z 35005KT 00/M16 A3024 RMK A01 T00041161  RH  028%=      5-min Rain = 0
KSB1 011317Z 35005KT 01/M16 A3025 RMK A01 T00061159  RH  028%=      5-min Rain = 0
KSB1 011318Z 34007KT 01/M16 A3025 RMK A01 T00061161  RH  027%=      5-min Rain = 0
KSB1 011319Z 34007KT 01/M16 A3025 RMK A01 T00051162  RH  027%=      5-min Rain = 0
KSB1 011320Z 36004KT 00/M16 A3025 RMK A01 T00041163  RH  027%=      5-min Rain = 0
KSB1 011321Z 35006KT 00/M16 A3025 RMK A01 T00021163  RH  028%=      5-min Rain = 0
KSB1 011322Z 34006KT 00/16 A3025 RMK A01 T00-00-163  RH  028%=      5-min Rain = 0
KSB1 011323Z 34006KT M00/M16 A3025 RMK A01 T10011161  RH  029%=      5-min Rain = 0
KSB1 011324Z 36004KT M00/M16 A3025 RMK A01 T10011161  RH  029%=      5-min Rain = 0
KSB1 011325Z 34006KT M00/M16 A3025 RMK A01 T10021162  RH  029%=      5-min Rain = 0
KSB1 011326Z 33006KT M00/M16 A3025 RMK A01 T10031162  RH  029%=      5-min Rain = 0
KSB1 011327Z 34005KT M00/M16 A3025 RMK A01 T10031161  RH  029%=      5-min Rain = 0
KSB1 011328Z 33005KT M00/M16 A3025 RMK A01 T10031159  RH  030%=      5-min Rain = 0
KSB1 011329Z 34006KT M00/M16 A3025 RMK A01 T10011158  RH  029%=      5-min Rain = 0
KSB1 011330Z 34006KT 00/M16 A3025 RMK A01 T00011157  RH  029%=      5-min Rain = 0
KSB1 011331Z 35005KT 00/M16 A3025 RMK A01 T00031157  RH  029%=      5-min Rain = 0
KSB1 011332Z 34005KT 00/M16 A3026 RMK A01 T00041157  RH  029%=      5-min Rain = 0
KSB1 011333Z 34005KT 00/M16 A3026 RMK A01 T00041157  RH  029%=      5-min Rain = 0
KSB1 011334Z 34006KT 00/M16 A3026 RMK A01 T00041157  RH  029%=      5-min Rain = 0
KSB1 011335Z 34006KT 00/M16 A3026 RMK A01 T00041158  RH  029%=      5-min Rain = 0
KSB1 011336Z 35007KT 00/M16 A3026 RMK A01 T00041158  RH  029%=      5-min Rain = 0
KSB1 011337Z 35008KT 00/M16 A3026 RMK A01 T00041157  RH  029%=      5-min Rain = 0
KSB1 011338Z 35008KT 01/M16 A3026 RMK A01 T00051157  RH  029%=      5-min Rain = 0
KSB1 011339Z 35008KT 01/M16 A3026 RMK A01 T00061156  RH  029%=      5-min Rain = 0
KSB1 011340Z 36007KT 01/M16 A3026 RMK A01 T00071156  RH  028%=      5-min Rain = 0
KSB1 011341Z 35006KT 01/M16 A3026 RMK A01 T00081156  RH  028%=      5-min Rain = 0
KSB1 011342Z 00008KT 01/M16 A3026 RMK A01 T00091156  RH  028%=      5-min Rain = 0
KSB1 011343Z 01008KT 01/M16 A3026 RMK A01 T00101155  RH  028%=      5-min Rain = 0
KSB1 011344Z 01008KT 01/M15 A3026 RMK A01 T00111154  RH  028%=      5-min Rain = 0
KSB1 011345Z 01008KT 01/M15 A3026 RMK A01 T00121151  RH  028%=      5-min Rain = 0
KSB1 011346Z 01008KT 01/M15 A3026 RMK A01 T00131149  RH  029%=      5-min Rain = 0
KSB1 011347Z 02010KT 01/M15 A3026 RMK A01 T00131147  RH  029%=      5-min Rain = 0
KSB1 011348Z 03008KT 01/M14 A3026 RMK A01 T00131142  RH  030%=      5-min Rain = 0
KSB1 011349Z 02008KT 01/M14 A3026 RMK A01 T00131140  RH  031%=      5-min Rain = 0
KSB1 011350Z 03008KT 01/M14 A3026 RMK A01 T00121139  RH  031%=      5-min Rain = 0
KSB1 011351Z 03009KT 01/M14 A3026 RMK A01 T00111139  RH  032%=      5-min Rain = 0
KSB1 011352Z 03009KT 01/M14 A3027 RMK A01 T00091138  RH  032%=      5-min Rain = 0
KSB1 011353Z 03008KT 01/M14 A3027 RMK A01 T00071136  RH  033%=      5-min Rain = 0
KSB1 011354Z 03007KT 01/M14 A3027 RMK A01 T00061135  RH  034%=      5-min Rain = 0
KSB1 011355Z 03007KT 01/M13 A3027 RMK A01 T00061133  RH  035%=      5-min Rain = 0
KSB1 011356Z 04006KT 01/M13 A3027 RMK A01 T00061131  RH  035%=      5-min Rain = 0
KSB1 011357Z 05006KT 01/M13 A3027 RMK A01 T00061130  RH  035%=      5-min Rain = 0
KSB1 011358Z 05006KT 01/M13 A3027 RMK A01 T00061130  RH  035%=      5-min Rain = 0
KSB1 011359Z 06004KT 01/M13 A3027 RMK A01 T00061130  RH  035%=      5-min Rain = 0
KSB1 011400Z 06005KT 01/M13 A3027 RMK A01 T00061133  RH  035%=      5-min Rain = 0
KSB1 011401Z 06004KT 01/M13 A3027 RMK A01 T00051134  RH  034%=      5-min Rain = 0
KSB1 011402Z 06005KT 00/M14 A3027 RMK A01 T00041135  RH  034%=      5-min Rain = 0
KSB1 011403Z 05004KT 01/M13 A3027 RMK A01 T00051133  RH  035%=      5-min Rain = 0
KSB1 011404Z 06004KT 01/M13 A3027 RMK A01 T00061132  RH  035%=      5-min Rain = 0
KSB1 011405Z 08004KT 01/M13 A3027 RMK A01 T00061132  RH  035%=      5-min Rain = 0
KSB1 011406Z 06004KT 01/M13 A3027 RMK A01 T00071134  RH  034%=      5-min Rain = 0
KSB1 011407Z 05005KT 01/M14 A3027 RMK A01 T00061137  RH  034%=      5-min Rain = 0
KSB1 011408Z 04006KT 01/M14 A3027 RMK A01 T00051138  RH  033%=      5-min Rain = 0
KSB1 011409Z 04005KT 00/M14 A3027 RMK A01 T00041139  RH  033%=      5-min Rain = 0
KSB1 011410Z 04005KT 00/M14 A3027 RMK A01 T00041139  RH  033%=      5-min Rain = 0
KSB1 011411Z 04005KT 00/M14 A3028 RMK A01 T00041138  RH  034%=      5-min Rain = 0
KSB1 011412Z 04005KT 00/M14 A3028 RMK A01 T00041138  RH  034%=      5-min Rain = 0
KSB1 011413Z 05005KT 01/M14 A3028 RMK A01 T00051137  RH  034%=      5-min Rain = 0
KSB1 011414Z 06004KT 01/M14 A3028 RMK A01 T00071135  RH  034%=      5-min Rain = 0
KSB1 011415Z 06004KT 01/M14 A3028 RMK A01 T00081135  RH  034%=      5-min Rain = 0
KSB1 011416Z 06003KT 01/M13 A3028 RMK A01 T00091134  RH  033%=      5-min Rain = 0
KSB1 011417Z 06003KT 01/M13 A3028 RMK A01 T00101134  RH  033%=      5-min Rain = 0
KSB1 011418Z 05003KT 01/M13 A3028 RMK A01 T00111133  RH  033%=      5-min Rain = 0
KSB1 011419Z 05004KT 01/M13 A3028 RMK A01 T00121132  RH  033%=      5-min Rain = 0
KSB1 011420Z 04004KT 01/M13 A3028 RMK A01 T00141130  RH  033%=      5-min Rain = 0
KSB1 011421Z 05003KT 02/M13 A3028 RMK A01 T00161128  RH  033%=      5-min Rain = 0
KSB1 011422Z 04004KT 02/M13 A3028 RMK A01 T00171127  RH  033%=      5-min Rain = 0
KSB1 011423Z 04003KT 02/M12 A3028 RMK A01 T00191124  RH  034%=      5-min Rain = 0
KSB1 011424Z 05003KT 02/M12 A3028 RMK A01 T00211122  RH  034%=      5-min Rain = 0
KSB1 011425Z 05002KT 02/M12 A3028 RMK A01 T00231122  RH  034%=      5-min Rain = 0
KSB1 011426Z 04002KT 02/M12 A3028 RMK A01 T00241122  RH  033%=      5-min Rain = 0
KSB1 011427Z 04003KT 03/M12 A3029 RMK A01 T00251122  RH  033%=      5-min Rain = 0
KSB1 011428Z 03005KT 03/M12 A3029 RMK A01 T00251119  RH  033%=      5-min Rain = 0
KSB1 011429Z 04007KT 03/M12 A3029 RMK A01 T00261117  RH  034%=      5-min Rain = 0
KSB1 011430Z 04007KT 03/M12 A3029 RMK A01 T00281115  RH  034%=      5-min Rain = 0
KSB1 011431Z 04008KT 03/M11 A3029 RMK A01 T00301114  RH  034%=      5-min Rain = 0
KSB1 011432Z 04008KT 03/M11 A3029 RMK A01 T00301113  RH  034%=      5-min Rain = 0
KSB1 011433Z 04009KT 03/M11 A3029 RMK A01 T00311113  RH  034%=      5-min Rain = 0
KSB1 011434Z 04009KT 03/M11 A3029 RMK A01 T00321113  RH  034%=      5-min Rain = 0
KSB1 011435Z 03009KT 03/M11 A3029 RMK A01 T00321112  RH  034%=      5-min Rain = 0
KSB1 011436Z 04009KT 03/M11 A3029 RMK A01 T00331112  RH  034%=      5-min Rain = 0
KSB1 011437Z 05010KT 03/M11 A3029 RMK A01 T00331112  RH  034%=      5-min Rain = 0
KSB1 011438Z 04009KT 03/M11 A3029 RMK A01 T00331112  RH  034%=      5-min Rain = 0
KSB1 011439Z 04009KT 03/M11 A3029 RMK A01 T00341111  RH  034%=      5-min Rain = 0
KSB1 011440Z 04011KT 03/M11 A303 RMK A01 T00341111  RH  034%=      5-min Rain = 0
KSB1 011441Z 04011KT 04/M11 A303 RMK A01 T00351111  RH  033%=      5-min Rain = 0
KSB1 011442Z 04009KT 04/M11 A303 RMK A01 T00351111  RH  033%=      5-min Rain = 0
KSB1 011443Z 04011KT 04/M11 A303 RMK A01 T00351111  RH  033%=      5-min Rain = 0
KSB1 011444Z 04010KT 04/M11 A303 RMK A01 T00361110  RH  033%=      5-min Rain = 0
KSB1 011445Z 05011KT 04/M11 A303 RMK A01 T00371110  RH  033%=      5-min Rain = 0
KSB1 011446Z 04009KT 04/M11 A303 RMK A01 T00371110  RH  033%=      5-min Rain = 0
KSB1 011447Z 04010KT 04/M11 A303 RMK A01 T00391109  RH  033%=      5-min Rain = 0
KSB1 011448Z 04010KT 04/M11 A303 RMK A01 T00391110  RH  033%=      5-min Rain = 0
KSB1 011449Z 03009KT 04/M11 A303 RMK A01 T00381110  RH  033%=      5-min Rain = 0
KSB1 011450Z 04011KT 04/M11 A303 RMK A01 T00401109  RH  033%=      5-min Rain = 0
KSB1 011451Z 04011KT 04/M11 A303 RMK A01 T00411109  RH  033%=      5-min Rain = 0
KSB1 011452Z 05012KT 04/M11 A303 RMK A01 T00411109  RH  033%=      5-min Rain = 0
KSB1 011453Z 05014KT 04/M11 A303 RMK A01 T00411109  RH  032%=      5-min Rain = 0
KSB1 011454Z 05014KT 04/M11 A303 RMK A01 T00411109  RH  033%=      5-min Rain = 0
KSB1 011455Z 05014KT 04/M11 A303 RMK A01 T00411109  RH  033%=      5-min Rain = 0
KSB1 011456Z 04013KT 04/M11 A3031 RMK A01 T00411109  RH  033%=      5-min Rain = 0
KSB1 011457Z 04013KT 04/M11 A3031 RMK A01 T00411109  RH  033%=      5-min Rain = 0
KSB1 011458Z 05013KT 04/M11 A3031 RMK A01 T00421109  RH  033%=      5-min Rain = 0
KSB1 011459Z 04014KT 04/M11 A3031 RMK A01 T00431108  RH  032%=      5-min Rain = 0
KSB1 011500Z 04013G20KT 04/M11 A3031 RMK A01 T00431109  RH  032%=      5-min Rain = 0
KSB1 011501Z 04016KT 04/M11 A3031 RMK A01 T00431109  RH  032%=      5-min Rain = 0
KSB1 011502Z 05016KT 04/M11 A3031 RMK A01 T00421109  RH  032%=      5-min Rain = 0
KSB1 011503Z 05014KT 04/M11 A3031 RMK A01 T00411109  RH  033%=      5-min Rain = 0
KSB1 011504Z 05015KT 04/M11 A3031 RMK A01 T00421108  RH  032%=      5-min Rain = 0
KSB1 011505Z 05015KT 04/M11 A3031 RMK A01 T00431108  RH  032%=      5-min Rain = 0
KSB1 011506Z 05016KT 04/M11 A3031 RMK A01 T00431109  RH  032%=      5-min Rain = 0
KSB1 011507Z 05016KT 04/M11 A3031 RMK A01 T00421109  RH  032%=      5-min Rain = 0
KSB1 011508Z 05015KT 04/M11 A3031 RMK A01 T00421109  RH  032%=      5-min Rain = 0
KSB1 011509Z 04016KT 04/M11 A3031 RMK A01 T00421108  RH  033%=      5-min Rain = 0
KSB1 011510Z 04012KT 04/M11 A3032 RMK A01 T00431108  RH  032%=      5-min Rain = 0
KSB1 011511Z 04013KT 05/M11 A3032 RMK A01 T00451106  RH  032%=      5-min Rain = 0
KSB1 011512Z 04015KT 05/M11 A3032 RMK A01 T00471106  RH  032%=      5-min Rain = 0
KSB1 011513Z 04014KT 05/M11 A3032 RMK A01 T00461108  RH  032%=      5-min Rain = 0
KSB1 011514Z 04015KT 05/M11 A3032 RMK A01 T00461108  RH  032%=      5-min Rain = 0
KSB1 011515Z 04013KT 05/M11 A3032 RMK A01 T00461108  RH  032%=      5-min Rain = 0
KSB1 011516Z 04013KT 05/M11 A3032 RMK A01 T00461108  RH  032%=      5-min Rain = 0
KSB1 011517Z 05014KT 05/M11 A3032 RMK A01 T00461108  RH  032%=      5-min Rain = 0
KSB1 011518Z 05013KT 05/M11 A3032 RMK A01 T00451108  RH  032%=      5-min Rain = 0
KSB1 011519Z 04012KT 05/M11 A3032 RMK A01 T00451108  RH  032%=      5-min Rain = 0
KSB1 011520Z 05011KT 05/M11 A3032 RMK A01 T00461108  RH  032%=      5-min Rain = 0
KSB1 011521Z 05014KT 05/M11 A3032 RMK A01 T00471107  RH  032%=      5-min Rain = 0
KSB1 011522Z 04013KT 05/M11 A3032 RMK A01 T00471108  RH  032%=      5-min Rain = 0
KSB1 011523Z 05011KT 05/M11 A3033 RMK A01 T00471107  RH  032%=      5-min Rain = 0
KSB1 011524Z 05015KT 05/M11 A3033 RMK A01 T00491107  RH  031%=      5-min Rain = 0
KSB1 011525Z 06015KT 05/M11 A3033 RMK A01 T00481108  RH  031%=      5-min Rain = 0
KSB1 011526Z 06014KT 05/M11 A3033 RMK A01 T00491107  RH  031%=      5-min Rain = 0
KSB1 011527Z 06013KT 05/M11 A3033 RMK A01 T00481108  RH  031%=      5-min Rain = 0
KSB1 011528Z 06015KT 05/M11 A3033 RMK A01 T00481107  RH  032%=      5-min Rain = 0
KSB1 011529Z 05015KT 05/M11 A3033 RMK A01 T00471108  RH  032%=      5-min Rain = 0
KSB1 011530Z 05015KT 05/M11 A3033 RMK A01 T00471108  RH  032%=      5-min Rain = 0
KSB1 011531Z 05014KT 05/M11 A3033 RMK A01 T00471108  RH  032%=      5-min Rain = 0
KSB1 011532Z 05013KT 05/M11 A3033 RMK A01 T00481107  RH  032%=      5-min Rain = 0
KSB1 011533Z 04014KT 05/M11 A3033 RMK A01 T00501107  RH  031%=      5-min Rain = 0
KSB1 011534Z 03016KT 05/M11 A3033 RMK A01 T00491107  RH  031%=      5-min Rain = 0
KSB1 011535Z 04016KT 05/M11 A3033 RMK A01 T00491107  RH  031%=      5-min Rain = 0
KSB1 011536Z 04013KT 05/M11 A3033 RMK A01 T00491107  RH  031%=      5-min Rain = 0
KSB1 011537Z 04014KT 05/M11 A3033 RMK A01 T00491107  RH  031%=      5-min Rain = 0
KSB1 011538Z 04013KT 05/M11 A3033 RMK A01 T00491107  RH  031%=      5-min Rain = 0
KSB1 011539Z 04012KT 05/M11 A3033 RMK A01 T00501107  RH  031%=      5-min Rain = 0
KSB1 011540Z 04011KT 05/M11 A3033 RMK A01 T00501107  RH  031%=      5-min Rain = 0
KSB1 011541Z 05009KT 05/M11 A3033 RMK A01 T00521106  RH  031%=      5-min Rain = 0
KSB1 011542Z 03010KT 05/M11 A3033 RMK A01 T00531106  RH  031%=      5-min Rain = 0
KSB1 011543Z 03013KT 05/M11 A3033 RMK A01 T00531107  RH  030%=      5-min Rain = 0
KSB1 011544Z 04014KT 05/M11 A3033 RMK A01 T00531107  RH  031%=      5-min Rain = 0
KSB1 011545Z 04013KT 05/M11 A3033 RMK A01 T00521107  RH  031%=      5-min Rain = 0
KSB1 011546Z 04012KT 05/M11 A3033 RMK A01 T00511107  RH  031%=      5-min Rain = 0
KSB1 011547Z 04010KT 05/M11 A3034 RMK A01 T00521106  RH  031%=      5-min Rain = 0
KSB1 011548Z 04011KT 05/M11 A3034 RMK A01 T00531106  RH  031%=      5-min Rain = 0
KSB1 011549Z 05014KT 05/M11 A3034 RMK A01 T00531106  RH  031%=      5-min Rain = 0
KSB1 011550Z 04013KT 05/M11 A3034 RMK A01 T00531106  RH  031%=      5-min Rain = 0
KSB1 011551Z 03012KT 05/M10 A3034 RMK A01 T00541104  RH  031%=      5-min Rain = 0
KSB1 011552Z 04011KT 06/M10 A3034 RMK A01 T00551104  RH  031%=      5-min Rain = 0
KSB1 011553Z 05009KT 06/M11 A3034 RMK A01 T00551105  RH  031%=      5-min Rain = 0
KSB1 011554Z 05008KT 06/M11 A3034 RMK A01 T00551105  RH  030%=      5-min Rain = 0
KSB1 011555Z 05011KT 06/M11 A3034 RMK A01 T00561105  RH  030%=      5-min Rain = 0
KSB1 011556Z 06010KT 06/M11 A3034 RMK A01 T00551105  RH  030%=      5-min Rain = 0
KSB1 011557Z 07011KT 06/M11 A3034 RMK A01 T00551105  RH  031%=      5-min Rain = 0
KSB1 011558Z 07009KT 05/M11 A3034 RMK A01 T00541105  RH  031%=      5-min Rain = 0
KSB1 011559Z 07009KT 05/M11 A3034 RMK A01 T00541105  RH  031%=      5-min Rain = 0
KSB1 011600Z 06009KT 06/M10 A3034 RMK A01 T00551104  RH  031%=      5-min Rain = 0
KSB1 011601Z 04012KT 06/M10 A3034 RMK A01 T00571103  RH  031%=      5-min Rain = 0
KSB1 011602Z 04007KT 06/M10 A3034 RMK A01 T00571103  RH  031%=      5-min Rain = 0
KSB1 011603Z 04013KT 06/M10 A3034 RMK A01 T00571102  RH  031%=      5-min Rain = 0
KSB1 011604Z 03011KT 06/M10 A3034 RMK A01 T00571103  RH  031%=      5-min Rain = 0
KSB1 011605Z 05009KT 06/M10 A3034 RMK A01 T00571103  RH  031%=      5-min Rain = 0
KSB1 011606Z 05012KT 06/M10 A3034 RMK A01 T00581101  RH  031%=      5-min Rain = 0
KSB1 011607Z 05012KT 06/M10 A3034 RMK A01 T00601102  RH  030%=      5-min Rain = 0
KSB1 011608Z 06010KT 06/M10 A3034 RMK A01 T00581102  RH  030%=      5-min Rain = 0
KSB1 011609Z 06013KT 06/M10 A3034 RMK A01 T00581101  RH  031%=      5-min Rain = 0
KSB1 011610Z 05011KT 06/M10 A3034 RMK A01 T00591101  RH  031%=      5-min Rain = 0
KSB1 011611Z 05013KT 06/M10 A3034 RMK A01 T00601100  RH  031%=      5-min Rain = 0
KSB1 011612Z 06015KT 06/M10 A3034 RMK A01 T00611101  RH  030%=      5-min Rain = 0
KSB1 011613Z 05014KT 06/M10 A3034 RMK A01 T00591102  RH  030%=      5-min Rain = 0
KSB1 011614Z 05012KT 06/M10 A3034 RMK A01 T00571103  RH  031%=      5-min Rain = 0
KSB1 011615Z 06010KT 06/M10 A3035 RMK A01 T00571102  RH  031%=      5-min Rain = 0
KSB1 011616Z 05007KT 06/M10 A3035 RMK A01 T00571102  RH  031%=      5-min Rain = 0
KSB1 011617Z 03009KT 06/M10 A3035 RMK A01 T00591099  RH  031%=      5-min Rain = 0
KSB1 011618Z 05012KT 06/M10 A3035 RMK A01 T00631098  RH  030%=      5-min Rain = 0
KSB1 011619Z 04014KT 06/M10 A3035 RMK A01 T00631101  RH  030%=      5-min Rain = 0
KSB1 011620Z 05011KT 06/M10 A3035 RMK A01 T00601102  RH  030%=      5-min Rain = 0
KSB1 011621Z 05009KT 06/M10 A3035 RMK A01 T00601102  RH  030%=      5-min Rain = 0
KSB1 011622Z 05009KT 06/M10 A3035 RMK A01 T00591101  RH  031%=      5-min Rain = 0
KSB1 011623Z 05010KT 06/M10 A3035 RMK A01 T00631098  RH  030%=      5-min Rain = 0
KSB1 011624Z 05013KT 06/M10 A3035 RMK A01 T00631100  RH  030%=      5-min Rain = 0
KSB1 011625Z 05013KT 06/M10 A3035 RMK A01 T00631100  RH  030%=      5-min Rain = 0
KSB1 011626Z 05011KT 06/M10 A3035 RMK A01 T00611102  RH  030%=      5-min Rain = 0
KSB1 011627Z 04010KT 06/M10 A3035 RMK A01 T00581102  RH  031%=      5-min Rain = 0
KSB1 011628Z 05011KT 06/M10 A3035 RMK A01 T00601099  RH  031%=      5-min Rain = 0
KSB1 011629Z 07008KT 06/M10 A3035 RMK A01 T00641098  RH  030%=      5-min Rain = 0
KSB1 011630Z 05011KT 06/M10 A3035 RMK A01 T00641100  RH  030%=      5-min Rain = 0
KSB1 011631Z 05013KT 06/M10 A3035 RMK A01 T00631099  RH  030%=      5-min Rain = 0
KSB1 011632Z 05012KT 06/M10 A3035 RMK A01 T00631100  RH  030%=      5-min Rain = 0
KSB1 011633Z 05011KT 06/M10 A3035 RMK A01 T00621100  RH  030%=      5-min Rain = 0
KSB1 011634Z 05012KT 06/M10 A3035 RMK A01 T00621099  RH  030%=      5-min Rain = 0
KSB1 011635Z 05010KT 06/M10 A3035 RMK A01 T00641099  RH  030%=      5-min Rain = 0
KSB1 011636Z 06013KT 06/M10 A3035 RMK A01 T00641099  RH  030%=      5-min Rain = 0
KSB1 011637Z 07013KT 07/M10 A3035 RMK A01 T00661098  RH  030%=      5-min Rain = 0
KSB1 011638Z 07012KT 07/M10 A3035 RMK A01 T00651099  RH  030%=      5-min Rain = 0
KSB1 011639Z 05013KT 07/M10 A3036 RMK A01 T00651099  RH  030%=      5-min Rain = 0
KSB1 011640Z 05011KT 07/M10 A3036 RMK A01 T00651099  RH  030%=      5-min Rain = 0
KSB1 011641Z 06008KT 06/M10 A3036 RMK A01 T00631100  RH  030%=      5-min Rain = 0
KSB1 011642Z 05009G14KT 06/M10 A3036 RMK A01 T00621100  RH  030%=      5-min Rain = 0
KSB1 011643Z 06014KT 06/M10 A3036 RMK A01 T00621099  RH  031%=      5-min Rain = 0
KSB1 011644Z 06013KT 06/M10 A3036 RMK A01 T00641098  RH  030%=      5-min Rain = 0
KSB1 011645Z 05011KT 07/M10 A3036 RMK A01 T00661098  RH  030%=      5-min Rain = 0
KSB1 011646Z 06012KT 07/M10 A3036 RMK A01 T00661097  RH  030%=      5-min Rain = 0
KSB1 011647Z 06010KT 07/M10 A3036 RMK A01 T00671098  RH  030%=      5-min Rain = 0
KSB1 011648Z 05014KT 07/M10 A3036 RMK A01 T00651098  RH  030%=      5-min Rain = 0
KSB1 011649Z 04013KT 07/M10 A3036 RMK A01 T00671098  RH  030%=      5-min Rain = 0
KSB1 011650Z 05011KT 07/M10 A3036 RMK A01 T00651099  RH  030%=      5-min Rain = 0
KSB1 011651Z 04009KT 06/M10 A3036 RMK A01 T00611101  RH  030%=      5-min Rain = 0
KSB1 011652Z 06010KT 06/M10 A3036 RMK A01 T00621098  RH  031%=      5-min Rain = 0
KSB1 011653Z 06012KT 07/M10 A3036 RMK A01 T00661096  RH  030%=      5-min Rain = 0
KSB1 011654Z 05011G16KT 07/M10 A3036 RMK A01 T00701096  RH  030%=      5-min Rain = 0
KSB1 011655Z 03011KT 07/M10 A3036 RMK A01 T00681097  RH  030%=      5-min Rain = 0
KSB1 011656Z 04013KT 07/M10 A3036 RMK A01 T00691098  RH  029%=      5-min Rain = 0
KSB1 011657Z 05012KT 07/M10 A3036 RMK A01 T00701098  RH  029%=      5-min Rain = 0
KSB1 011658Z 04013KT 07/M10 A3036 RMK A01 T00691098  RH  029%=      5-min Rain = 0
KSB1 011659Z 04012KT 07/M10 A3036 RMK A01 T00691097  RH  029%=      5-min Rain = 0
KSB1 011700Z 04014KT 07/M10 A3036 RMK A01 T00711098  RH  029%=      5-min Rain = 0
KSB1 011701Z 04011KT 07/M10 A3036 RMK A01 T00691101  RH  029%=      5-min Rain = 0
KSB1 011702Z 03010KT 07/M10 A3036 RMK A01 T00681100  RH  029%=      5-min Rain = 0
KSB1 011703Z 04014KT 07/M10 A3037 RMK A01 T00691099  RH  029%=      5-min Rain = 0
KSB1 011704Z 04013KT 07/M10 A3037 RMK A01 T00711099  RH  029%=      5-min Rain = 0
KSB1 011705Z 03013KT 07/M10 A3036 RMK A01 T00701102  RH  028%=      5-min Rain = 0
KSB1 011706Z 04012KT 07/M10 A3036 RMK A01 T00681103  RH  028%=      5-min Rain = 0
KSB1 011707Z 04012KT 07/M10 A3036 RMK A01 T00711101  RH  028%=      5-min Rain = 0
KSB1 011708Z 02011KT 07/M10 A3036 RMK A01 T00691103  RH  028%=      5-min Rain = 0
KSB1 011709Z 03010KT 07/M10 A3036 RMK A01 T00681103  RH  028%=      5-min Rain = 0
KSB1 011710Z 03010KT 07/M10 A3036 RMK A01 T00651104  RH  028%=      5-min Rain = 0
KSB1 011711Z 04012KT 07/M10 A3036 RMK A01 T00651103  RH  029%=      5-min Rain = 0
KSB1 011712Z 04016KT 07/M10 A3037 RMK A01 T00701101  RH  028%=      5-min Rain = 0
KSB1 011713Z 04012KT 07/M10 A3037 RMK A01 T00701103  RH  028%=      5-min Rain = 0
KSB1 011714Z 05012KT 07/M10 A3037 RMK A01 T00701103  RH  028%=      5-min Rain = 0
KSB1 011715Z 04010KT 07/M10 A3037 RMK A01 T00691103  RH  028%=      5-min Rain = 0
KSB1 011716Z 03011KT 07/M10 A3037 RMK A01 T00661104  RH  028%=      5-min Rain = 0
KSB1 011717Z 04014KT 07/M10 A3037 RMK A01 T00671103  RH  029%=      5-min Rain = 0
KSB1 011718Z 02015KT 07/M11 A3036 RMK A01 T00671105  RH  028%=      5-min Rain = 0
KSB1 011719Z 03011KT 07/M11 A3037 RMK A01 T00671106  RH  028%=      5-min Rain = 0
KSB1 011720Z 05011KT 07/M11 A3037 RMK A01 T00691105  RH  028%=      5-min Rain = 0
KSB1 011721Z 06013KT 07/M10 A3037 RMK A01 T00721102  RH  028%=      5-min Rain = 0
KSB1 011722Z 09011KT 07/M11 A3037 RMK A01 T00711105  RH  027%=      5-min Rain = 0
KSB1 011723Z 09010KT 07/M10 A3037 RMK A01 T00701104  RH  028%=      5-min Rain = 0
KSB1 011724Z 07010KT 07/M10 A3037 RMK A01 T00721103  RH  028%=      5-min Rain = 0
KSB1 011725Z 06011KT 07/M10 A3037 RMK A01 T00741103  RH  027%=      5-min Rain = 0
KSB1 011726Z 06011KT 07/M10 A3037 RMK A01 T00741104  RH  027%=      5-min Rain = 0
KSB1 011727Z 04013KT 08/M10 A3037 RMK A01 T00751103  RH  027%=      5-min Rain = 0
KSB1 011728Z 03014KT 08/M11 A3036 RMK A01 T00751105  RH  027%=      5-min Rain = 0
KSB1 011729Z 03014KT 07/M11 A3036 RMK A01 T00741106  RH  026%=      5-min Rain = 0
KSB1 011730Z 02011KT 07/M11 A3037 RMK A01 T00731107  RH  027%=      5-min Rain = 0
KSB1 011731Z 04007KT 07/M11 A3037 RMK A01 T00691109  RH  027%=      5-min Rain = 0
KSB1 011732Z 05010KT 07/M11 A3037 RMK A01 T00711105  RH  027%=      5-min Rain = 0
KSB1 011733Z 04010KT 07/M11 A3037 RMK A01 T00711107  RH  027%=      5-min Rain = 0
KSB1 011734Z 04010KT 07/M11 A3037 RMK A01 T00701107  RH  027%=      5-min Rain = 0
KSB1 011735Z 05011KT 07/M11 A3036 RMK A01 T00741105  RH  027%=      5-min Rain = 0
KSB1 011736Z 07015KT 08/M10 A3036 RMK A01 T00781103  RH  026%=      5-min Rain = 0
KSB1 011737Z 06013KT 08/M11 A3036 RMK A01 T00781106  RH  026%=      5-min Rain = 0
KSB1 011738Z 07009KT 08/M11 A3036 RMK A01 T00781106  RH  026%=      5-min Rain = 0
KSB1 011739Z 07010KT 08/M11 A3037 RMK A01 T00791106  RH  026%=      5-min Rain = 0
KSB1 011740Z 05013KT 08/M11 A3037 RMK A01 T00781107  RH  026%=      5-min Rain = 0
KSB1 011741Z 03013G18KT 08/M11 A3037 RMK A01 T00761109  RH  026%=      5-min Rain = 0
KSB1 011742Z 02012KT 08/M11 A3037 RMK A01 T00751109  RH  026%=      5-min Rain = 0
KSB1 011743Z 02012KT 08/M11 A3037 RMK A01 T00781106  RH  026%=      5-min Rain = 0
KSB1 011744Z 03016KT 08/M11 A3037 RMK A01 T00811106  RH  025%=      5-min Rain = 0
KSB1 011745Z 04013KT 08/M11 A3037 RMK A01 T00781110  RH  025%=      5-min Rain = 0
KSB1 011746Z 04011KT 08/M11 A3037 RMK A01 T00751111  RH  025%=      5-min Rain = 0
KSB1 011747Z 04012KT 08/M11 A3037 RMK A01 T00771109  RH  026%=      5-min Rain = 0
KSB1 011748Z 04010G15KT 08/M11 A3037 RMK A01 T00771109  RH  025%=      5-min Rain = 0
KSB1 011749Z 02013KT 08/M11 A3037 RMK A01 T00771109  RH  025%=      5-min Rain = 0
KSB1 011750Z 03012KT 08/M11 A3037 RMK A01 T00751111  RH  025%=      5-min Rain = 0
KSB1 011751Z 03011KT 07/M11 A3037 RMK A01 T00741110  RH  026%=      5-min Rain = 0
KSB1 011752Z 03012KT 08/M11 A3037 RMK A01 T00781106  RH  026%=      5-min Rain = 0
KSB1 011753Z 02011KT 08/M11 A3037 RMK A01 T00801108  RH  025%=      5-min Rain = 0
KSB1 011754Z 03017KT 08/M11 A3037 RMK A01 T00801108  RH  025%=      5-min Rain = 0
KSB1 011755Z 03017KT 08/M11 A3037 RMK A01 T00791109  RH  025%=      5-min Rain = 0
KSB1 011756Z 03015KT 08/M11 A3037 RMK A01 T00771110  RH  025%=      5-min Rain = 0
KSB1 011757Z 04014KT 08/M11 A3037 RMK A01 T00761109  RH  025%=      5-min Rain = 0
KSB1 011758Z 04009KT 08/M11 A3037 RMK A01 T00761109  RH  026%=      5-min Rain = 0
KSB1 011759Z 04007KT 08/M11 A3037 RMK A01 T00771110  RH  025%=      5-min Rain = 0
KSB1 011800Z 03010KT 08/M11 A3037 RMK A01 T00751111  RH  025%=      5-min Rain = 0
KSB1 011801Z 02010KT 07/M11 A3037 RMK A01 T00731111  RH  026%=      5-min Rain = 0
KSB1 011802Z 01014KT 08/M11 A3037 RMK A01 T00771109  RH  026%=      5-min Rain = 0
KSB1 011803Z 01011KT 08/M11 A3037 RMK A01 T00781110  RH  025%=      5-min Rain = 0
KSB1 011804Z 02008KT 08/M11 A3037 RMK A01 T00751112  RH  025%=      5-min Rain = 0
KSB1 011805Z 03009KT 08/M11 A3037 RMK A01 T00751111  RH  025%=      5-min Rain = 0
KSB1 011806Z 03016KT 08/M11 A3037 RMK A01 T00761109  RH  026%=      5-min Rain = 0
KSB1 011807Z 05014KT 08/M11 A3037 RMK A01 T00781108  RH  025%=      5-min Rain = 0
KSB1 011808Z 04011KT 08/M11 A3037 RMK A01 T00781109  RH  025%=      5-min Rain = 0
KSB1 011809Z 04009KT 08/M11 A3037 RMK A01 T00781109  RH  025%=      5-min Rain = 0
KSB1 011810Z 03014G19KT 08/M11 A3037 RMK A01 T00781109  RH  025%=      5-min Rain = 0
KSB1 011811Z 03015KT 08/M11 A3037 RMK A01 T00781110  RH  025%=      5-min Rain = 0
KSB1 011812Z 02016KT 08/M11 A3037 RMK A01 T00781110  RH  025%=      5-min Rain = 0
KSB1 011813Z 00015KT 08/M11 A3037 RMK A01 T00771110  RH  025%=      5-min Rain = 0
KSB1 011814Z 36014KT 08/M11 A3037 RMK A01 T00791109  RH  025%=      5-min Rain = 0
KSB1 011815Z 02013KT 08/M11 A3037 RMK A01 T00781110  RH  025%=      5-min Rain = 0
KSB1 011816Z 04015KT 08/M11 A3037 RMK A01 T00781110  RH  025%=      5-min Rain = 0
KSB1 011817Z 04014KT 08/M11 A3037 RMK A01 T00781110  RH  025%=      5-min Rain = 0
KSB1 011818Z 03013KT 08/M11 A3037 RMK A01 T00771112  RH  025%=      5-min Rain = 0
KSB1 011819Z 04014KT 08/M11 A3037 RMK A01 T00771112  RH  025%=      5-min Rain = 0
KSB1 011820Z 04014KT 08/M11 A3037 RMK A01 T00771111  RH  025%=      5-min Rain = 0
KSB1 011821Z 03011KT 08/M11 A3037 RMK A01 T00771110  RH  025%=      5-min Rain = 0
KSB1 011822Z 02010KT 08/M11 A3037 RMK A01 T00781110  RH  025%=      5-min Rain = 0
KSB1 011823Z 02010G15KT 08/M11 A3037 RMK A01 T00761111  RH  025%=      5-min Rain = 0
KSB1 011824Z 02006KT 08/M11 A3037 RMK A01 T00751112  RH  025%=      5-min Rain = 0
KSB1 011825Z 04012KT 08/M11 A3037 RMK A01 T00751110  RH  025%=      5-min Rain = 0
KSB1 011826Z 04014KT 08/M11 A3037 RMK A01 T00801108  RH  025%=      5-min Rain = 0
KSB1 011827Z 04012KT 08/M11 A3037 RMK A01 T00801111  RH  025%=      5-min Rain = 0
KSB1 011828Z 05009KT 08/M11 A3037 RMK A01 T00781111  RH  025%=      5-min Rain = 0
KSB1 011829Z 05011KT 08/M11 A3037 RMK A01 T00801109  RH  025%=      5-min Rain = 0
KSB1 011830Z 04011KT 08/M11 A3037 RMK A01 T00811109  RH  025%=      5-min Rain = 0
KSB1 011831Z 05010KT 08/M11 A3037 RMK A01 T00791111  RH  025%=      5-min Rain = 0
KSB1 011832Z 03013KT 08/M11 A3037 RMK A01 T00791111  RH  025%=      5-min Rain = 0
KSB1 011833Z 03015KT 08/M11 A3036 RMK A01 T00771111  RH  025%=      5-min Rain = 0
KSB1 011834Z 05016KT 08/M11 A3036 RMK A01 T00821107  RH  025%=      5-min Rain = 0
KSB1 011835Z 06012KT 08/M11 A3036 RMK A01 T00831110  RH  024%=      5-min Rain = 0
KSB1 011836Z 05011KT 08/M11 A3037 RMK A01 T00791111  RH  025%=      5-min Rain = 0
KSB1 011837Z 04012KT 08/M11 A3037 RMK A01 T00801108  RH  025%=      5-min Rain = 0
KSB1 011838Z 02015KT 09/M11 A3036 RMK A01 T00851106  RH  025%=      5-min Rain = 0
KSB1 011839Z 02012KT 09/M11 A3036 RMK A01 T00881106  RH  024%=      5-min Rain = 0
KSB1 011840Z 03010KT 09/M11 A3036 RMK A01 T00851109  RH  024%=      5-min Rain = 0
KSB1 011841Z 03011G16KT 08/M11 A3036 RMK A01 T00841108  RH  025%=      5-min Rain = 0
KSB1 011842Z 01014G19KT 09/M11 A3036 RMK A01 T00851107  RH  024%=      5-min Rain = 0
KSB1 011843Z 03015KT 09/M11 A3036 RMK A01 T00851105  RH  025%=      5-min Rain = 0
KSB1 011844Z 02012KT 09/M11 A3036 RMK A01 T00891105  RH  024%=      5-min Rain = 0
KSB1 011845Z 01013KT 09/M11 A3036 RMK A01 T00891106  RH  024%=      5-min Rain = 0
KSB1 011846Z 03016G22KT 09/M11 A3036 RMK A01 T00871106  RH  024%=      5-min Rain = 0
KSB1 011847Z 05018KT 09/M11 A3036 RMK A01 T00891105  RH  024%=      5-min Rain = 0
KSB1 011848Z 04014KT 09/M11 A3036 RMK A01 T00871106  RH  024%=      5-min Rain = 0
KSB1 011849Z 04015KT 09/M11 A3036 RMK A01 T00861107  RH  024%=      5-min Rain = 0
KSB1 011850Z 05010KT 08/M11 A3036 RMK A01 T00811108  RH  025%=      5-min Rain = 0
KSB1 011851Z 04012KT 08/M10 A3036 RMK A01 T00831103  RH  026%=      5-min Rain = 0
KSB1 011852Z 03017KT 09/M10 A3036 RMK A01 T00861102  RH  025%=      5-min Rain = 0
KSB1 011853Z 03014KT 09/M10 A3036 RMK A01 T00851102  RH  025%=      5-min Rain = 0
KSB1 011854Z 02012KT 08/M10 A3036 RMK A01 T00841102  RH  026%=      5-min Rain = 0
KSB1 011855Z 02010KT 09/M10 A3036 RMK A01 T00871100  RH  025%=      5-min Rain = 0
KSB1 011856Z 02011KT 09/M10 A3036 RMK A01 T00871101  RH  025%=      5-min Rain = 0
KSB1 011857Z 03010KT 09/M10 A3036 RMK A01 T00861101  RH  026%=      5-min Rain = 0
KSB1 011858Z 03011KT 08/M10 A3036 RMK A01 T00841102  RH  026%=      5-min Rain = 0
KSB1 011859Z 04013KT 09/M10 A3036 RMK A01 T00851099  RH  026%=      5-min Rain = 0
KSB1 011900Z 03014KT 09/M10 A3036 RMK A01 T00871100  RH  026%=      5-min Rain = 0
KSB1 011901Z 02016KT 09/M10 A3036 RMK A01 T00861100  RH  026%=      5-min Rain = 0
KSB1 011902Z 00016KT 09/M10 A3036 RMK A01 T00851101  RH  026%=      5-min Rain = 0
KSB1 011903Z 01015KT 08/M10 A3036 RMK A01 T00831101  RH  026%=      5-min Rain = 0
KSB1 011904Z 04013KT 09/M10 A3036 RMK A01 T00851099  RH  026%=      5-min Rain = 0
KSB1 011905Z 02013KT 09/M10 A3036 RMK A01 T00891097  RH  026%=      5-min Rain = 0
KSB1 011906Z 02010G17KT 09/M10 A3036 RMK A01 T00851101  RH  026%=      5-min Rain = 0
KSB1 011907Z 04016KT 08/M10 A3036 RMK A01 T00831099  RH  026%=      5-min Rain = 0
KSB1 011908Z 03011KT 08/M10 A3036 RMK A01 T00821099  RH  027%=      5-min Rain = 0
KSB1 011909Z 04014KT 08/M10 A3036 RMK A01 T00811099  RH  027%=      5-min Rain = 0
KSB1 011910Z 04015KT 08/M10 A3036 RMK A01 T00831097  RH  027%=      5-min Rain = 0
KSB1 011911Z 04011KT 08/M10 A3036 RMK A01 T00831099  RH  026%=      5-min Rain = 0
KSB1 011912Z 04012KT 08/M10 A3036 RMK A01 T00811098  RH  027%=      5-min Rain = 0
KSB1 011913Z 06012KT 08/M10 A3036 RMK A01 T00821097  RH  027%=      5-min Rain = 0
KSB1 011914Z 02013G18KT 08/M10 A3036 RMK A01 T00811098  RH  027%=      5-min Rain = 0
KSB1 011915Z 01011KT 08/M10 A3036 RMK A01 T00811096  RH  027%=      5-min Rain = 0
KSB1 011916Z 03011KT 08/M09 A3036 RMK A01 T00841094  RH  027%=      5-min Rain = 0
KSB1 011917Z 04013KT 09/M09 A3036 RMK A01 T00861094  RH  027%=      5-min Rain = 0
KSB1 011918Z 05013KT 09/M09 A3036 RMK A01 T00881094  RH  026%=      5-min Rain = 0
KSB1 011919Z 03011KT 09/M10 A3036 RMK A01 T00861096  RH  026%=      5-min Rain = 0
KSB1 011920Z 03012KT 08/M10 A3036 RMK A01 T00841097  RH  027%=      5-min Rain = 0
KSB1 011921Z 04011KT 08/M10 A3036 RMK A01 T00841096  RH  027%=      5-min Rain = 0
KSB1 011922Z 05007KT 09/M10 A3036 RMK A01 T00851095  RH  027%=      5-min Rain = 0
KSB1 011923Z 03005KT 08/M10 A3036 RMK A01 T00831096  RH  027%=      5-min Rain = 0
KSB1 011924Z 03011KT 08/M10 A3036 RMK A01 T00821095  RH  027%=      5-min Rain = 0
KSB1 011925Z 03016KT 08/M09 A3035 RMK A01 T00821089  RH  029%=      5-min Rain = 0
KSB1 011926Z 03012KT 08/M09 A3036 RMK A01 T00831087  RH  029%=      5-min Rain = 0
KSB1 011927Z 03009KT 08/M09 A3036 RMK A01 T00811087  RH  029%=      5-min Rain = 0
KSB1 011928Z 02009KT 08/M09 A3036 RMK A01 T00791086  RH  030%=      5-min Rain = 0
KSB1 011929Z 03008KT 08/M09 A3035 RMK A01 T00801085  RH  030%=      5-min Rain = 0
KSB1 011930Z 05011KT 08/M08 A3035 RMK A01 T00821084  RH  030%=      5-min Rain = 0
KSB1 011931Z 06013KT 09/M08 A3035 RMK A01 T00851083  RH  030%=      5-min Rain = 0
KSB1 011932Z 04013KT 09/M08 A3035 RMK A01 T00891082  RH  029%=      5-min Rain = 0
KSB1 011933Z 04014KT 09/M08 A3035 RMK A01 T00881083  RH  029%=      5-min Rain = 0
KSB1 011934Z 05014KT 09/M08 A3035 RMK A01 T00861083  RH  029%=      5-min Rain = 0
KSB1 011935Z 04009G14KT 09/M08 A3035 RMK A01 T00861083  RH  029%=      5-min Rain = 0
KSB1 011936Z 05007KT 09/M08 A3035 RMK A01 T00861084  RH  029%=      5-min Rain = 0
KSB1 011937Z 06010KT 09/M09 A3035 RMK A01 T00861085  RH  029%=      5-min Rain = 0
KSB1 011938Z 05009KT 09/M08 A3035 RMK A01 T00851084  RH  029%=      5-min Rain = 0
KSB1 011939Z 04014KT 08/M09 A3035 RMK A01 T00841085  RH  029%=      5-min Rain = 0
KSB1 011940Z 03015KT 08/M08 A3035 RMK A01 T00821082  RH  030%=      5-min Rain = 0
KSB1 011941Z 03013KT 08/M08 A3035 RMK A01 T00841080  RH  030%=      5-min Rain = 0
KSB1 011942Z 02010G15KT 08/M08 A3035 RMK A01 T00841082  RH  030%=      5-min Rain = 0
KSB1 011943Z 03012G18KT 08/M08 A3035 RMK A01 T00821082  RH  030%=      5-min Rain = 0
KSB1 011944Z 03016G21KT 08/M08 A3035 RMK A01 T00841079  RH  031%=      5-min Rain = 0
KSB1 011945Z 04017KT 09/M08 A3035 RMK A01 T00851078  RH  031%=      5-min Rain = 0
KSB1 011946Z 04014KT 09/M08 A3035 RMK A01 T00881075  RH  031%=      5-min Rain = 0
KSB1 011947Z 05013KT 09/M08 A3035 RMK A01 T00931075  RH  030%=      5-min Rain = 0
KSB1 011948Z 06011KT 09/M08 A3035 RMK A01 T00891079  RH  030%=      5-min Rain = 0
KSB1 011949Z 07010KT 09/M08 A3035 RMK A01 T00861079  RH  030%=      5-min Rain = 0
KSB1 011950Z 06011KT 09/M08 A3035 RMK A01 T00851078  RH  031%=      5-min Rain = 0
KSB1 011951Z 05014G19KT 09/M08 A3035 RMK A01 T00891075  RH  031%=      5-min Rain = 0
KSB1 011952Z 02014KT 09/M08 A3035 RMK A01 T00891076  RH  030%=      5-min Rain = 0
KSB1 011953Z 03014KT 09/M08 A3035 RMK A01 T00891076  RH  030%=      5-min Rain = 0
KSB1 011954Z 01011KT 09/M08 A3035 RMK A01 T00891077  RH  030%=      5-min Rain = 0
KSB1 011955Z 01012KT 09/M07 A3035 RMK A01 T00911074  RH  030%=      5-min Rain = 0
KSB1 011956Z 01009KT 09/M08 A3035 RMK A01 T00901075  RH  030%=      5-min Rain = 0
KSB1 011957Z 04010KT 09/M07 A3035 RMK A01 T00861074  RH  031%=      5-min Rain = 0
KSB1 011958Z 06017G22KT 09/M07 A3034 RMK A01 T00871070  RH  032%=      5-min Rain = 0
KSB1 011959Z 05013G20KT 09/M07 A3035 RMK A01 T00861069  RH  032%=      5-min Rain = 0
KSB1 012000Z 04012KT 09/M07 A3035 RMK A01 T00871069  RH  032%=      5-min Rain = 0
KSB1 012001Z 03015KT 09/M07 A3035 RMK A01 T00871069  RH  033%=      5-min Rain = 0
KSB1 012002Z 02015KT 09/M07 A3035 RMK A01 T00861068  RH  033%=      5-min Rain = 0
KSB1 012003Z 03015KT 09/M07 A3035 RMK A01 T00881066  RH  033%=      5-min Rain = 0
KSB1 012004Z 03018KT 09/M07 A3035 RMK A01 T00881068  RH  033%=      5-min Rain = 0
KSB1 012005Z 03016KT 09/M07 A3035 RMK A01 T00861068  RH  033%=      5-min Rain = 0
KSB1 012006Z 04017KT 09/M07 A3035 RMK A01 T00881067  RH  033%=      5-min Rain = 0
KSB1 012007Z 04014KT 09/M07 A3035 RMK A01 T00861068  RH  033%=      5-min Rain = 0
KSB1 012008Z 03011KT 08/M07 A3035 RMK A01 T00811069  RH  034%=      5-min Rain = 0
KSB1 012009Z 04011KT 09/M06 A3035 RMK A01 T00861064  RH  034%=      5-min Rain = 0
KSB1 012010Z 05008KT 09/M07 A3035 RMK A01 T00871067  RH  033%=      5-min Rain = 0
KSB1 012011Z 05009KT 08/M07 A3035 RMK A01 T00831067  RH  034%=      5-min Rain = 0
KSB1 012012Z 03014G19KT 08/M06 A3034 RMK A01 T00841063  RH  035%=      5-min Rain = 0
KSB1 012013Z 02015KT 09/M06 A3034 RMK A01 T00911061  RH  034%=      5-min Rain = 0
KSB1 012014Z 02015KT 09/M06 A3034 RMK A01 T00911062  RH  033%=      5-min Rain = 0
KSB1 012015Z 02015KT 09/M06 A3034 RMK A01 T00901062  RH  034%=      5-min Rain = 0
KSB1 012016Z 02012G18KT 09/M07 A3034 RMK A01 T00851066  RH  034%=      5-min Rain = 0
KSB1 012017Z 02016KT 09/M06 A3034 RMK A01 T00861062  RH  034%=      5-min Rain = 0
KSB1 012018Z 02012G17KT 09/M06 A3034 RMK A01 T00861063  RH  034%=      5-min Rain = 0
KSB1 012019Z 03010G16KT 08/M06 A3034 RMK A01 T00831062  RH  035%=      5-min Rain = 0
KSB1 012020Z 02015KT 08/M06 A3034 RMK A01 T00821061  RH  036%=      5-min Rain = 0
KSB1 012021Z 03013KT 08/M06 A3034 RMK A01 T00811061  RH  036%=      5-min Rain = 0
KSB1 012022Z 03011KT 08/M06 A3034 RMK A01 T00791062  RH  036%=      5-min Rain = 0
KSB1 012023Z 01012KT 08/M06 A3034 RMK A01 T00781061  RH  037%=      5-min Rain = 0
KSB1 012024Z 03011G17KT 08/M06 A3034 RMK A01 T00821058  RH  037%=      5-min Rain = 0
KSB1 012025Z 02012KT 09/M06 A3034 RMK A01 T00861058  RH  036%=      5-min Rain = 0
KSB1 012026Z 02015KT 09/M06 A3034 RMK A01 T00851059  RH  035%=      5-min Rain = 0
KSB1 012027Z 02015KT 09/M06 A3034 RMK A01 T00851059  RH  036%=      5-min Rain = 0
KSB1 012028Z 04014KT 09/M06 A3034 RMK A01 T00861058  RH  036%=      5-min Rain = 0
KSB1 012029Z 02015KT 09/M06 A3034 RMK A01 T00881057  RH  035%=      5-min Rain = 0
KSB1 012030Z 02015KT 09/M06 A3034 RMK A01 T00901060  RH  034%=      5-min Rain = 0
KSB1 012031Z 01011KT 08/M06 A3034 RMK A01 T00841062  RH  035%=      5-min Rain = 0
KSB1 012032Z 02011KT 08/M06 A3034 RMK A01 T00801060  RH  036%=      5-min Rain = 0
KSB1 012033Z 04013G18KT 09/M06 A3034 RMK A01 T00851056  RH  036%=      5-min Rain = 0
KSB1 012034Z 03010KT 09/M06 A3034 RMK A01 T00881057  RH  035%=      5-min Rain = 0
KSB1 012035Z 04010KT 09/M06 A3034 RMK A01 T00851059  RH  035%=      5-min Rain = 0
KSB1 012036Z 05012KT 08/M06 A3034 RMK A01 T00821060  RH  036%=      5-min Rain = 0
KSB1 012037Z 05013KT 08/M06 A3034 RMK A01 T00811059  RH  036%=      5-min Rain = 0
KSB1 012038Z 05013KT 09/M06 A3034 RMK A01 T00851059  RH  036%=      5-min Rain = 0
KSB1 012039Z 04009KT 09/M06 A3034 RMK A01 T00861061  RH  035%=      5-min Rain = 0
KSB1 012040Z 06009KT 09/M06 A3034 RMK A01 T00851061  RH  035%=      5-min Rain = 0
KSB1 012041Z 04010G17KT 09/M06 A3034 RMK A01 T00871059  RH  035%=      5-min Rain = 0
KSB1 012042Z 03011KT 09/M06 A3033 RMK A01 T00901058  RH  035%=      5-min Rain = 0
KSB1 012043Z 05010KT 09/M06 A3033 RMK A01 T00901058  RH  035%=      5-min Rain = 0
KSB1 012044Z 05012KT 09/M06 A3033 RMK A01 T00901060  RH  034%=      5-min Rain = 0
KSB1 012045Z 03015KT 09/M06 A3033 RMK A01 T00881062  RH  034%=      5-min Rain = 0
KSB1 012046Z 02013KT 09/M06 A3033 RMK A01 T00851062  RH  035%=      5-min Rain = 0
KSB1 012047Z 03012KT 09/M06 A3033 RMK A01 T00851061  RH  035%=      5-min Rain = 0
KSB1 012048Z 03011KT 09/M06 A3033 RMK A01 T00881061  RH  034%=      5-min Rain = 0
KSB1 012049Z 04007KT 09/M06 A3034 RMK A01 T00861063  RH  034%=      5-min Rain = 0
KSB1 012050Z 03013KT 08/M06 A3033 RMK A01 T00841063  RH  035%=      5-min Rain = 0
KSB1 012051Z 04010KT 08/M06 A3034 RMK A01 T00831061  RH  036%=      5-min Rain = 0
KSB1 012052Z 04009KT 08/M06 A3034 RMK A01 T00821061  RH  036%=      5-min Rain = 0
KSB1 012053Z 03011KT 08/M06 A3033 RMK A01 T00801061  RH  036%=      5-min Rain = 0
KSB1 012054Z 04013KT 08/M06 A3033 RMK A01 T00811059  RH  037%=      5-min Rain = 0
KSB1 012055Z 06014KT 08/M06 A3033 RMK A01 T00821059  RH  036%=      5-min Rain = 0
KSB1 012056Z 05010KT 08/M06 A3033 RMK A01 T00841059  RH  036%=      5-min Rain = 0
KSB1 012057Z 03009KT 08/M06 A3033 RMK A01 T00831061  RH  035%=      5-min Rain = 0
KSB1 012058Z 04008KT 08/M06 A3033 RMK A01 T00801063  RH  036%=      5-min Rain = 0
KSB1 012059Z 02010G15KT 08/M06 A3033 RMK A01 T00791062  RH  036%=      5-min Rain = 0
KSB1 012100Z 02009KT 08/M06 A3033 RMK A01 T00791061  RH  037%=      5-min Rain = 0
KSB1 012101Z 05011KT 08/M06 A3033 RMK A01 T00801059  RH  037%=      5-min Rain = 0
KSB1 012102Z 05009KT 08/M06 A3033 RMK A01 T00831061  RH  036%=      5-min Rain = 0
KSB1 012103Z 03007KT 08/M06 A3033 RMK A01 T00821062  RH  035%=      5-min Rain = 0
KSB1 012104Z 04013KT 08/M06 A3033 RMK A01 T00811061  RH  036%=      5-min Rain = 0
KSB1 012105Z 03013KT 09/M06 A3033 RMK A01 T00851061  RH  035%=      5-min Rain = 0
KSB1 012106Z 02013KT 09/M06 A3033 RMK A01 T00861062  RH  034%=      5-min Rain = 0
KSB1 012107Z 02010KT 09/M06 A3033 RMK A01 T00851064  RH  034%=      5-min Rain = 0
KSB1 012108Z 04011KT 08/M06 A3033 RMK A01 T00841063  RH  035%=      5-min Rain = 0
KSB1 012109Z 03013KT 09/M06 A3033 RMK A01 T00891062  RH  034%=      5-min Rain = 0
KSB1 012110Z 03009KT 09/M06 A3033 RMK A01 T00881064  RH  034%=      5-min Rain = 0
KSB1 012111Z 04008KT 09/M06 A3033 RMK A01 T00871064  RH  034%=      5-min Rain = 0
KSB1 012112Z 04012KT 09/M06 A3033 RMK A01 T00871063  RH  034%=      5-min Rain = 0
KSB1 012113Z 04011KT 09/M06 A3033 RMK A01 T00871063  RH  034%=      5-min Rain = 0
KSB1 012114Z 05012KT 09/M06 A3033 RMK A01 T00871062  RH  034%=      5-min Rain = 0
KSB1 012115Z 05011KT 09/M06 A3033 RMK A01 T00871062  RH  034%=      5-min Rain = 0
KSB1 012116Z 05009KT 08/M06 A3033 RMK A01 T00831063  RH  035%=      5-min Rain = 0
KSB1 012117Z 04010KT 08/M06 A3033 RMK A01 T00811062  RH  036%=      5-min Rain = 0
KSB1 012118Z 07014KT 08/M06 A3033 RMK A01 T00831060  RH  036%=      5-min Rain = 0
KSB1 012119Z 06012KT 09/M06 A3033 RMK A01 T00881062  RH  034%=      5-min Rain = 0
KSB1 012120Z 07009KT 09/M06 A3033 RMK A01 T00851064  RH  034%=      5-min Rain = 0
KSB1 012121Z 06011G16KT 08/M06 A3033 RMK A01 T00831062  RH  035%=      5-min Rain = 0
KSB1 012122Z 06014KT 08/M06 A3033 RMK A01 T00841059  RH  036%=      5-min Rain = 0
KSB1 012123Z 07010KT 08/M06 A3033 RMK A01 T00841060  RH  035%=      5-min Rain = 0
KSB1 012124Z 07008KT 08/M06 A3033 RMK A01 T00831060  RH  036%=      5-min Rain = 0
KSB1 012125Z 04014KT 09/M06 A3033 RMK A01 T00851058  RH  036%=      5-min Rain = 0
KSB1 012126Z 05017KT 09/M06 A3033 RMK A01 T00881058  RH  035%=      5-min Rain = 0
KSB1 012127Z 05014KT 09/M06 A3033 RMK A01 T00861058  RH  035%=      5-min Rain = 0
KSB1 012128Z 07013KT 09/M06 A3033 RMK A01 T00851057  RH  036%=      5-min Rain = 0
KSB1 012129Z 07012KT 09/M06 A3033 RMK A01 T00871056  RH  036%=      5-min Rain = 0
KSB1 012130Z 07012KT 09/M06 A3033 RMK A01 T00861057  RH  036%=      5-min Rain = 0
KSB1 012131Z 06013KT 09/M06 A3033 RMK A01 T00871056  RH  036%=      5-min Rain = 0
KSB1 012132Z 05012KT 09/M06 A3033 RMK A01 T00871056  RH  036%=      5-min Rain = 0
KSB1 012133Z 04013KT 09/M05 A3033 RMK A01 T00901054  RH  036%=      5-min Rain = 0
KSB1 012134Z 04013KT 09/M05 A3033 RMK A01 T00911054  RH  035%=      5-min Rain = 0
KSB1 012135Z 05016KT 09/M06 A3033 RMK A01 T00911055  RH  035%=      5-min Rain = 0
KSB1 012136Z 06015KT 09/M06 A3033 RMK A01 T00911056  RH  035%=      5-min Rain = 0
KSB1 012137Z 06014KT 09/M06 A3033 RMK A01 T00911058  RH  035%=      5-min Rain = 0
KSB1 012138Z 05015KT 09/M06 A3033 RMK A01 T00931056  RH  034%=      5-min Rain = 0
KSB1 012139Z 04013KT 09/M06 A3033 RMK A01 T00911057  RH  035%=      5-min Rain = 0
KSB1 012140Z 04015KT 09/M06 A3033 RMK A01 T00901056  RH  035%=      5-min Rain = 0
KSB1 012141Z 05013KT 09/M06 A3033 RMK A01 T00871057  RH  036%=      5-min Rain = 0
KSB1 012142Z 05011G16KT 09/M06 A3033 RMK A01 T00851056  RH  036%=      5-min Rain = 0
KSB1 012143Z 05013KT 09/M05 A3033 RMK A01 T00871053  RH  036%=      5-min Rain = 0
KSB1 012144Z 07013KT 09/M05 A3033 RMK A01 T00901052  RH  036%=      5-min Rain = 0
KSB1 012145Z 07011KT 09/M05 A3033 RMK A01 T00891052  RH  036%=      5-min Rain = 0
KSB1 012146Z 07008KT 09/M05 A3033 RMK A01 T00871052  RH  037%=      5-min Rain = 0
KSB1 012147Z 07010KT 09/M05 A3033 RMK A01 T00891050  RH  037%=      5-min Rain = 0
KSB1 012148Z 07010KT 09/M05 A3033 RMK A01 T00901050  RH  037%=      5-min Rain = 0
KSB1 012149Z 05012KT 09/M05 A3033 RMK A01 T00881051  RH  037%=      5-min Rain = 0
KSB1 012150Z 05012KT 09/M05 A3032 RMK A01 T00861051  RH  037%=      5-min Rain = 0
KSB1 012151Z 06011G19KT 09/M05 A3032 RMK A01 T00851051  RH  038%=      5-min Rain = 0
KSB1 012152Z 07013G18KT 09/M05 A3032 RMK A01 T00861050  RH  038%=      5-min Rain = 0
KSB1 012153Z 07015KT 09/M05 A3033 RMK A01 T00891049  RH  037%=      5-min Rain = 0
KSB1 012154Z 07013KT 09/M05 A3033 RMK A01 T00891051  RH  037%=      5-min Rain = 0
KSB1 012155Z 06014KT 09/M05 A3033 RMK A01 T00881051  RH  037%=      5-min Rain = 0
KSB1 012156Z 06013KT 09/M05 A3033 RMK A01 T00861052  RH  037%=      5-min Rain = 0
KSB1 012157Z 07012KT 09/M05 A3033 RMK A01 T00861053  RH  037%=      5-min Rain = 0
KSB1 012158Z 08013KT 09/M05 A3033 RMK A01 T00881052  RH  037%=      5-min Rain = 0
KSB1 012159Z 09015KT 09/M05 A3032 RMK A01 T00901053  RH  036%=      5-min Rain = 0
KSB1 012200Z 08013KT 09/M05 A3033 RMK A01 T00891053  RH  036%=      5-min Rain = 0
KSB1 012201Z 10010KT 09/M05 A3033 RMK A01 T00891053  RH  036%=      5-min Rain = 0
KSB1 012202Z 09008KT 09/M05 A3033 RMK A01 T00891053  RH  036%=      5-min Rain = 0
KSB1 012203Z 06011KT 09/M05 A3033 RMK A01 T00921052  RH  036%=      5-min Rain = 0
KSB1 012204Z 08013KT 09/M05 A3033 RMK A01 T00921053  RH  035%=      5-min Rain = 0
KSB1 012205Z 07011KT 09/M05 A3033 RMK A01 T00921053  RH  035%=      5-min Rain = 0
KSB1 012206Z 06008KT 09/M06 A3033 RMK A01 T00881056  RH  036%=      5-min Rain = 0
KSB1 012207Z 06013KT 09/M06 A3032 RMK A01 T00871055  RH  036%=      5-min Rain = 0
KSB1 012208Z 05010KT 09/M06 A3032 RMK A01 T00881055  RH  036%=      5-min Rain = 0
KSB1 012209Z 06008KT 09/M06 A3033 RMK A01 T00871055  RH  036%=      5-min Rain = 0
KSB1 012210Z 07011KT 09/M05 A3033 RMK A01 T00911052  RH  036%=      5-min Rain = 0
KSB1 012211Z 07011KT 09/M06 A3033 RMK A01 T00931056  RH  035%=      5-min Rain = 0
KSB1 012212Z 08012KT 09/M06 A3032 RMK A01 T00911056  RH  035%=      5-min Rain = 0
KSB1 012213Z 07012KT 09/M06 A3033 RMK A01 T00921056  RH  035%=      5-min Rain = 0
KSB1 012214Z 05013KT 09/M06 A3033 RMK A01 T00931056  RH  034%=      5-min Rain = 0
KSB1 012215Z 05012KT 09/M06 A3033 RMK A01 T00901059  RH  034%=      5-min Rain = 0
KSB1 012216Z 04011KT 09/M06 A3033 RMK A01 T00871060  RH  035%=      5-min Rain = 0
KSB1 012217Z 05011KT 09/M06 A3033 RMK A01 T00871059  RH  035%=      5-min Rain = 0
KSB1 012218Z 07007KT 09/M06 A3033 RMK A01 T00881056  RH  036%=      5-min Rain = 0
KSB1 012219Z 05007KT 09/M06 A3033 RMK A01 T00881055  RH  036%=      5-min Rain = 0
KSB1 012220Z 06009KT 09/M06 A3033 RMK A01 T00891056  RH  035%=      5-min Rain = 0
KSB1 012221Z 05010KT 09/M06 A3033 RMK A01 T00901055  RH  035%=      5-min Rain = 0
KSB1 012222Z 05014KT 09/M06 A3032 RMK A01 T00901055  RH  035%=      5-min Rain = 0
KSB1 012223Z 06013KT 09/M06 A3033 RMK A01 T00901055  RH  035%=      5-min Rain = 0
KSB1 012224Z 07011KT 09/M06 A3033 RMK A01 T00901055  RH  035%=      5-min Rain = 0
KSB1 012225Z 06010KT 09/M06 A3033 RMK A01 T00921056  RH  035%=      5-min Rain = 0
KSB1 012226Z 05009KT 09/M06 A3033 RMK A01 T00901057  RH  035%=      5-min Rain = 0
KSB1 012227Z 05010G16KT 09/M06 A3033 RMK A01 T00881057  RH  035%=      5-min Rain = 0
KSB1 012228Z 07012KT 09/M06 A3033 RMK A01 T00871056  RH  036%=      5-min Rain = 0
KSB1 012229Z 08009KT 09/M06 A3033 RMK A01 T00891055  RH  036%=      5-min Rain = 0
KSB1 012230Z 08009KT 09/M06 A3033 RMK A01 T00871056  RH  036%=      5-min Rain = 0
KSB1 012231Z 08012KT 09/M06 A3032 RMK A01 T00861056  RH  036%=      5-min Rain = 0
KSB1 012232Z 06012KT 09/M06 A3033 RMK A01 T00891055  RH  036%=      5-min Rain = 0
KSB1 012233Z 06013KT 09/M06 A3033 RMK A01 T00911055  RH  035%=      5-min Rain = 0
KSB1 012234Z 06009KT 09/M06 A3033 RMK A01 T00891055  RH  036%=      5-min Rain = 0
KSB1 012235Z 05009KT 09/M05 A3033 RMK A01 T00891054  RH  036%=      5-min Rain = 0
KSB1 012236Z 05007KT 09/M05 A3033 RMK A01 T00891054  RH  036%=      5-min Rain = 0
KSB1 012237Z 06008KT 09/M05 A3033 RMK A01 T00901053  RH  036%=      5-min Rain = 0
KSB1 012238Z 07006KT 09/M05 A3033 RMK A01 T00901053  RH  036%=      5-min Rain = 0
KSB1 012239Z 06012G18KT 09/M05 A3033 RMK A01 T00921052  RH  036%=      5-min Rain = 0
KSB1 012240Z 06016KT 09/M05 A3033 RMK A01 T00941052  RH  035%=      5-min Rain = 0
KSB1 012241Z 05012KT 09/M05 A3033 RMK A01 T00911054  RH  036%=      5-min Rain = 0
KSB1 012242Z 05011KT 09/M05 A3033 RMK A01 T00891054  RH  036%=      5-min Rain = 0
KSB1 012243Z 06012KT 09/M05 A3033 RMK A01 T00891053  RH  036%=      5-min Rain = 0
KSB1 012244Z 05011KT 09/M05 A3033 RMK A01 T00891054  RH  036%=      5-min Rain = 0
KSB1 012245Z 05012KT 09/M05 A3033 RMK A01 T00891054  RH  036%=      5-min Rain = 0
KSB1 012246Z 04012KT 09/M06 A3033 RMK A01 T00881055  RH  036%=      5-min Rain = 0
KSB1 012247Z 05015KT 09/M06 A3033 RMK A01 T00891055  RH  036%=      5-min Rain = 0
KSB1 012248Z 07014KT 09/M06 A3033 RMK A01 T00881055  RH  036%=      5-min Rain = 0
KSB1 012249Z 08013KT 09/M05 A3033 RMK A01 T00881054  RH  036%=      5-min Rain = 0
KSB1 012250Z 08009KT 09/M06 A3033 RMK A01 T00881055  RH  036%=      5-min Rain = 0
KSB1 012251Z 08007KT 09/M05 A3033 RMK A01 T00871054  RH  036%=      5-min Rain = 0
KSB1 012252Z 07007KT 09/M06 A3033 RMK A01 T00861055  RH  036%=      5-min Rain = 0
KSB1 012253Z 08011KT 09/M05 A3033 RMK A01 T00851054  RH  037%=      5-min Rain = 0
KSB1 012254Z 08009KT 09/M05 A3033 RMK A01 T00871052  RH  037%=      5-min Rain = 0
KSB1 012255Z 07008KT 09/M05 A3033 RMK A01 T00871053  RH  037%=      5-min Rain = 0
KSB1 012256Z 05012KT 09/M06 A3033 RMK A01 T00871055  RH  036%=      5-min Rain = 0
KSB1 012257Z 06010KT 09/M06 A3033 RMK A01 T00881058  RH  035%=      5-min Rain = 0
KSB1 012258Z 06012KT 09/M06 A3033 RMK A01 T00901057  RH  035%=      5-min Rain = 0
KSB1 012259Z 06011KT 09/M06 A3033 RMK A01 T00901056  RH  035%=      5-min Rain = 0
KSB1 012300Z 06013KT 09/M06 A3033 RMK A01 T00911056  RH  035%=      5-min Rain = 0
KSB1 012301Z 07013KT 09/M06 A3033 RMK A01 T00911055  RH  035%=      5-min Rain = 0
KSB1 012302Z 07011KT 09/M05 A3033 RMK A01 T00891054  RH  036%=      5-min Rain = 0
KSB1 012303Z 06008KT 09/M05 A3033 RMK A01 T00871054  RH  036%=      5-min Rain = 0
KSB1 012304Z 05009KT 09/M05 A3033 RMK A01 T00861053  RH  037%=      5-min Rain = 0
KSB1 012305Z 05012KT 09/M05 A3033 RMK A01 T00871052  RH  037%=      5-min Rain = 0
KSB1 012306Z 08009KT 09/M05 A3033 RMK A01 T00901053  RH  036%=      5-min Rain = 0
KSB1 012307Z 06010KT 09/M05 A3033 RMK A01 T00941054  RH  035%=      5-min Rain = 0
KSB1 012308Z 06014KT 09/M05 A3033 RMK A01 T00931054  RH  035%=      5-min Rain = 0
KSB1 012309Z 05014KT 09/M06 A3033 RMK A01 T00901055  RH  036%=      5-min Rain = 0
KSB1 012310Z 05011KT 09/M05 A3033 RMK A01 T00881054  RH  036%=      5-min Rain = 0
KSB1 012311Z 06011KT 09/M05 A3033 RMK A01 T00871054  RH  036%=      5-min Rain = 0
KSB1 012312Z 06011KT 09/M05 A3033 RMK A01 T00871054  RH  036%=      5-min Rain = 0
KSB1 012313Z 05008KT 09/M06 A3033 RMK A01 T00861055  RH  036%=      5-min Rain = 0
KSB1 012314Z 07009KT 08/M06 A3033 RMK A01 T00841055  RH  037%=      5-min Rain = 0
KSB1 012315Z 07011KT 08/M06 A3033 RMK A01 T00841055  RH  037%=      5-min Rain = 0
KSB1 012316Z 05011KT 08/M06 A3033 RMK A01 T00841055  RH  037%=      5-min Rain = 0
KSB1 012317Z 05011KT 09/M06 A3033 RMK A01 T00851056  RH  036%=      5-min Rain = 0
KSB1 012318Z 06009KT 09/M06 A3033 RMK A01 T00851057  RH  036%=      5-min Rain = 0
KSB1 012319Z 05012KT 09/M06 A3033 RMK A01 T00851057  RH  036%=      5-min Rain = 0
KSB1 012320Z 06010KT 08/M06 A3033 RMK A01 T00841056  RH  037%=      5-min Rain = 0
KSB1 012321Z 07009KT 08/M06 A3033 RMK A01 T00841056  RH  037%=      5-min Rain = 0
KSB1 012322Z 07010KT 08/M06 A3033 RMK A01 T00841056  RH  037%=      5-min Rain = 0
KSB1 012323Z 05013KT 08/M06 A3033 RMK A01 T00841055  RH  037%=      5-min Rain = 0
KSB1 012324Z 05012KT 08/M06 A3033 RMK A01 T00841055  RH  037%=      5-min Rain = 0
KSB1 012325Z 06013KT 08/M05 A3033 RMK A01 T00841054  RH  037%=      5-min Rain = 0
KSB1 012326Z 06013KT 08/M05 A3033 RMK A01 T00841054  RH  037%=      5-min Rain = 0
KSB1 012327Z 07012KT 08/M05 A3033 RMK A01 T00841054  RH  037%=      5-min Rain = 0
KSB1 012328Z 07012KT 08/M06 A3033 RMK A01 T00841055  RH  037%=      5-min Rain = 0
KSB1 012329Z 07010KT 08/M06 A3033 RMK A01 T00831055  RH  037%=      5-min Rain = 0
KSB1 012330Z 08007KT 08/M05 A3033 RMK A01 T00831054  RH  038%=      5-min Rain = 0
KSB1 012331Z 06009KT 08/M05 A3033 RMK A01 T00821053  RH  038%=      5-min Rain = 0
KSB1 012332Z 06011KT 08/M05 A3033 RMK A01 T00841051  RH  038%=      5-min Rain = 0
KSB1 012333Z 06010KT 08/M05 A3033 RMK A01 T00841052  RH  038%=      5-min Rain = 0
KSB1 012334Z 07011KT 08/M05 A3033 RMK A01 T00841051  RH  038%=      5-min Rain = 0
KSB1 012335Z 05012KT 08/M05 A3033 RMK A01 T00841051  RH  038%=      5-min Rain = 0
KSB1 012336Z 06012KT 09/M05 A3033 RMK A01 T00851051  RH  038%=      5-min Rain = 0
KSB1 012337Z 07012KT 09/M05 A3033 RMK A01 T00851051  RH  038%=      5-min Rain = 0
KSB1 012338Z 06010KT 09/M05 A3033 RMK A01 T00861051  RH  037%=      5-min Rain = 0
KSB1 012339Z 05008KT 08/M05 A3033 RMK A01 T00841052  RH  038%=      5-min Rain = 0
KSB1 012340Z 05011KT 08/M05 A3033 RMK A01 T00841052  RH  038%=      5-min Rain = 0
KSB1 012341Z 04010KT 08/M05 A3033 RMK A01 T00841051  RH  038%=      5-min Rain = 0
KSB1 012342Z 05011KT 09/M05 A3033 RMK A01 T00851051  RH  038%=      5-min Rain = 0
KSB1 012343Z 06012KT 08/M05 A3033 RMK A01 T00841051  RH  038%=      5-min Rain = 0
KSB1 012344Z 06012KT 08/M05 A3033 RMK A01 T00821052  RH  038%=      5-min Rain = 0
KSB1 012345Z 06011KT 08/M05 A3033 RMK A01 T00811052  RH  038%=      5-min Rain = 0
KSB1 012346Z 05010KT 08/M05 A3033 RMK A01 T00811052  RH  038%=      5-min Rain = 0
KSB1 012347Z 06013KT 08/M05 A3033 RMK A01 T00811052  RH  038%=      5-min Rain = 0
KSB1 012348Z 06010KT 08/M05 A3034 RMK A01 T00811053  RH  038%=      5-min Rain = 0
KSB1 012349Z 07011KT 08/M05 A3034 RMK A01 T00821052  RH  038%=      5-min Rain = 0
KSB1 012350Z 07011KT 08/M05 A3033 RMK A01 T00821052  RH  038%=      5-min Rain = 0
KSB1 012351Z 05013KT 08/M05 A3033 RMK A01 T00831052  RH  038%=      5-min Rain = 0
KSB1 012352Z 06013KT 08/M05 A3033 RMK A01 T00811054  RH  038%=      5-min Rain = 0
KSB1 012353Z 06013KT 08/M05 A3033 RMK A01 T00801054  RH  038%=      5-min Rain = 0
KSB1 012354Z 06013KT 08/M05 A3034 RMK A01 T00801052  RH  039%=      5-min Rain = 0
KSB1 012355Z 06011KT 08/M05 A3034 RMK A01 T00801051  RH  039%=      5-min Rain = 0
KSB1 012356Z 06011KT 08/M05 A3034 RMK A01 T00811051  RH  039%=      5-min Rain = 0
KSB1 012357Z 07010KT 08/M05 A3034 RMK A01 T00801051  RH  039%=      5-min Rain = 0
KSB1 012358Z 08013KT 08/M05 A3034 RMK A01 T00801049  RH  040%=      5-min Rain = 0
KSB1 012359Z 08011G16KT 08/M05 A3034 RMK A01 T00791047  RH  040%=      5-min Rain = 0
KSB1 020000Z 07014KT 08/M05 A3034 RMK A01 T00781046  RH  041%=      5-min Rain = 0
KSB1 020001Z 07012KT 08/M05 A3034 RMK A01 T00781045  RH  041%=      5-min Rain = 0
KSB1 020002Z 08013KT 08/M05 A3034 RMK A01 T00771045  RH  042%=      5-min Rain = 0
KSB1 020003Z 09012KT 08/M05 A3034 RMK A01 T00771045  RH  042%=      5-min Rain = 0
KSB1 020004Z 09013KT 08/M05 A3034 RMK A01 T00771045  RH  042%=      5-min Rain = 0
KSB1 020005Z 09011KT 08/M04 A3034 RMK A01 T00771044  RH  042%=      5-min Rain = 0
KSB1 020006Z 09011KT 08/M04 A3034 RMK A01 T00771044  RH  042%=      5-min Rain = 0
KSB1 020007Z 10013KT 08/M04 A3034 RMK A01 T00761044  RH  042%=      5-min Rain = 0
KSB1 020008Z 11013KT 08/M04 A3034 RMK A01 T00761044  RH  042%=      5-min Rain = 0
KSB1 020009Z 10014KT 08/M04 A3034 RMK A01 T00751044  RH  042%=      5-min Rain = 0
KSB1 020010Z 11014KT 08/M04 A3034 RMK A01 T00751044  RH  043%=      5-min Rain = 0
KSB1 020011Z 08012KT 08/M04 A3034 RMK A01 T00751044  RH  042%=      5-min Rain = 0
KSB1 020012Z 07013KT 08/M05 A3034 RMK A01 T00761045  RH  042%=      5-min Rain = 0
KSB1 020013Z 07012KT 08/M05 A3034 RMK A01 T00761046  RH  042%=      5-min Rain = 0
KSB1 020014Z 07012KT 08/M05 A3034 RMK A01 T00761046  RH  042%=      5-min Rain = 0
KSB1 020015Z 08013KT 07/M05 A3034 RMK A01 T00741046  RH  042%=      5-min Rain = 0
KSB1 020016Z 08011KT 07/M05 A3034 RMK A01 T00741046  RH  042%=      5-min Rain = 0
KSB1 020017Z 08011KT 07/M05 A3034 RMK A01 T00731046  RH  043%=      5-min Rain = 0
KSB1 020018Z 09011KT 07/M05 A3034 RMK A01 T00731045  RH  043%=      5-min Rain = 0
KSB1 020019Z 09011KT 07/M05 A3034 RMK A01 T00741045  RH  043%=      5-min Rain = 0
KSB1 020020Z 08009KT 07/M05 A3034 RMK A01 T00741045  RH  043%=      5-min Rain = 0
KSB1 020021Z 09009KT 07/M05 A3034 RMK A01 T00731045  RH  043%=      5-min Rain = 0
KSB1 020022Z 09011KT 07/M05 A3034 RMK A01 T00741045  RH  043%=      5-min Rain = 0
KSB1 020023Z 08010KT 07/M05 A3034 RMK A01 T00731045  RH  043%=      5-min Rain = 0
KSB1 020024Z 08010KT 07/M05 A3034 RMK A01 T00721045  RH  043%=      5-min Rain = 0
KSB1 020025Z 08010KT 07/M05 A3034 RMK A01 T00721045  RH  043%=      5-min Rain = 0
KSB1 020026Z 08009KT 07/M05 A3035 RMK A01 T00711045  RH  043%=      5-min Rain = 0
KSB1 020027Z 07012KT 07/M05 A3035 RMK A01 T00711045  RH  044%=      5-min Rain = 0
KSB1 020028Z 07013KT 07/M05 A3035 RMK A01 T00701045  RH  044%=      5-min Rain = 0
KSB1 020029Z 07013KT 07/M05 A3035 RMK A01 T00701045  RH  044%=      5-min Rain = 0
KSB1 020030Z 07011KT 07/M04 A3035 RMK A01 T00691044  RH  044%=      5-min Rain = 0
KSB1 020031Z 07011KT 07/M05 A3035 RMK A01 T00681045  RH  044%=      5-min Rain = 0
KSB1 020032Z 07012KT 07/M04 A3035 RMK A01 T00681044  RH  044%=      5-min Rain = 0
KSB1 020033Z 07013KT 07/M05 A3035 RMK A01 T00681045  RH  045%=      5-min Rain = 0
KSB1 020034Z 07010KT 07/M05 A3035 RMK A01 T00671045  RH  045%=      5-min Rain = 0
KSB1 020035Z 07013KT 07/M05 A3035 RMK A01 T00671045  RH  045%=      5-min Rain = 0
KSB1 020036Z 08012KT 07/M05 A3035 RMK A01 T00661045  RH  045%=      5-min Rain = 0
KSB1 020037Z 08010KT 07/M05 A3035 RMK A01 T00661045  RH  045%=      5-min Rain = 0
KSB1 020038Z 08011KT 07/M05 A3035 RMK A01 T00661045  RH  045%=      5-min Rain = 0
KSB1 020039Z 09011KT 07/M05 A3035 RMK A01 T00661045  RH  045%=      5-min Rain = 0
KSB1 020040Z 09013KT 07/M05 A3035 RMK A01 T00651045  RH  045%=      5-min Rain = 0
KSB1 020041Z 09012KT 07/M05 A3035 RMK A01 T00651045  RH  045%=      5-min Rain = 0
KSB1 020042Z 07012KT 07/M05 A3035 RMK A01 T00651046  RH  045%=      5-min Rain = 0
KSB1 020043Z 07012KT 07/M05 A3035 RMK A01 T00651045  RH  045%=      5-min Rain = 0
KSB1 020044Z 07013KT 06/M05 A3035 RMK A01 T00641045  RH  046%=      5-min Rain = 0
KSB1 020045Z 07011KT 06/M05 A3035 RMK A01 T00631045  RH  046%=      5-min Rain = 0
KSB1 020046Z 08010KT 06/M05 A3035 RMK A01 T00631045  RH  046%=      5-min Rain = 0
KSB1 020047Z 08012KT 06/M05 A3035 RMK A01 T00631045  RH  046%=      5-min Rain = 0
KSB1 020048Z 08012KT 06/M05 A3035 RMK A01 T00621045  RH  046%=      5-min Rain = 0
KSB1 020049Z 08010KT 06/M05 A3035 RMK A01 T00621045  RH  046%=      5-min Rain = 0
KSB1 020050Z 07012KT 06/M05 A3035 RMK A01 T00611045  RH  047%=      5-min Rain = 0
KSB1 020051Z 08010KT 06/M05 A3035 RMK A01 T00611045  RH  047%=      5-min Rain = 0
KSB1 020052Z 08012KT 06/M04 A3035 RMK A01 T00611044  RH  047%=      5-min Rain = 0
KSB1 020053Z 08011KT 06/M04 A3035 RMK A01 T00601044  RH  047%=      5-min Rain = 0
KSB1 020054Z 08009KT 06/M04 A3035 RMK A01 T00601044  RH  047%=      5-min Rain = 0
KSB1 020055Z 08008KT 06/M04 A3035 RMK A01 T00601044  RH  047%=      5-min Rain = 0
KSB1 020056Z 08008KT 06/M05 A3035 RMK A01 T00591045  RH  047%=      5-min Rain = 0
KSB1 020057Z 08009KT 06/M05 A3036 RMK A01 T00591045  RH  047%=      5-min Rain = 0
KSB1 020058Z 08009KT 06/M05 A3036 RMK A01 T00581045  RH  047%=      5-min Rain = 0
KSB1 020059Z 07010KT 06/M04 A3036 RMK A01 T00581044  RH  048%=      5-min Rain = 0
KSB1 020100Z 07012KT 06/M04 A3036 RMK A01 T00581044  RH  048%=      5-min Rain = 0
KSB1 020101Z 08011KT 06/M04 A3035 RMK A01 T00581044  RH  048%=      5-min Rain = 0
KSB1 020102Z 08012KT 06/M04 A3035 RMK A01 T00581044  RH  048%=      5-min Rain = 0
KSB1 020103Z 07011KT 06/M04 A3035 RMK A01 T00571044  RH  048%=      5-min Rain = 0
KSB1 020104Z 08011KT 06/M04 A3036 RMK A01 T00571044  RH  048%=      5-min Rain = 0
KSB1 020105Z 08011KT 06/M04 A3036 RMK A01 T00571044  RH  048%=      5-min Rain = 0
KSB1 020106Z 08009KT 06/M04 A3036 RMK A01 T00571044  RH  048%=      5-min Rain = 0
KSB1 020107Z 07009KT 06/M05 A3036 RMK A01 T00561045  RH  048%=      5-min Rain = 0
KSB1 020108Z 07009KT 06/M05 A3036 RMK A01 T00561045  RH  048%=      5-min Rain = 0
KSB1 020109Z 08009KT 06/M05 A3036 RMK A01 T00551045  RH  048%=      5-min Rain = 0
KSB1 020110Z 07009KT 06/M05 A3036 RMK A01 T00551045  RH  048%=      5-min Rain = 0
KSB1 020111Z 07009KT 06/M05 A3036 RMK A01 T00551045  RH  049%=      5-min Rain = 0
KSB1 020112Z 07009KT 05/M05 A3036 RMK A01 T00541045  RH  049%=      5-min Rain = 0
KSB1 020113Z 07009KT 05/M05 A3036 RMK A01 T00541045  RH  049%=      5-min Rain = 0
KSB1 020114Z 08008KT 05/M05 A3036 RMK A01 T00531045  RH  049%=      5-min Rain = 0
KSB1 020115Z 08008KT 05/M05 A3036 RMK A01 T00531045  RH  049%=      5-min Rain = 0
KSB1 020116Z 08009KT 05/M05 A3036 RMK A01 T00531045  RH  049%=      5-min Rain = 0
KSB1 020117Z 08008KT 05/M04 A3036 RMK A01 T00531044  RH  050%=      5-min Rain = 0
KSB1 020118Z 09009KT 05/M04 A3036 RMK A01 T00521044  RH  050%=      5-min Rain = 0
KSB1 020119Z 08009KT 05/M04 A3036 RMK A01 T00521044  RH  050%=      5-min Rain = 0
KSB1 020120Z 09011KT 05/M04 A3036 RMK A01 T00521044  RH  050%=      5-min Rain = 0
KSB1 020121Z 08011KT 05/M04 A3036 RMK A01 T00521043  RH  050%=      5-min Rain = 0
KSB1 020122Z 08011KT 05/M04 A3036 RMK A01 T00521042  RH  051%=      5-min Rain = 0
KSB1 020123Z 09011KT 05/M04 A3036 RMK A01 T00521042  RH  051%=      5-min Rain = 0
KSB1 020124Z 09010KT 05/M04 A3036 RMK A01 T00511042  RH  051%=      5-min Rain = 0
KSB1 020125Z 09010KT 05/M04 A3036 RMK A01 T00511042  RH  051%=      5-min Rain = 0
KSB1 020126Z 09010KT 05/M04 A3036 RMK A01 T00511042  RH  051%=      5-min Rain = 0
KSB1 020127Z 09011KT 05/M04 A3036 RMK A01 T00511042  RH  051%=      5-min Rain = 0
KSB1 020128Z 08010KT 05/M04 A3036 RMK A01 T00501042  RH  051%=      5-min Rain = 0
KSB1 020129Z 09008KT 05/M04 A3036 RMK A01 T00511042  RH  051%=      5-min Rain = 0
KSB1 020130Z 08008KT 05/M04 A3036 RMK A01 T00501043  RH  051%=      5-min Rain = 0
KSB1 020131Z 09008KT 05/M04 A3036 RMK A01 T00491043  RH  051%=      5-min Rain = 0
KSB1 020132Z 09009KT 05/M04 A3036 RMK A01 T00491043  RH  051%=      5-min Rain = 0
KSB1 020133Z 09011KT 05/M04 A3036 RMK A01 T00491043  RH  051%=      5-min Rain = 0
KSB1 020134Z 08008KT 05/M04 A3036 RMK A01 T00491044  RH  051%=      5-min Rain = 0
KSB1 020135Z 08006KT 05/M04 A3036 RMK A01 T00481044  RH  051%=      5-min Rain = 0
KSB1 020136Z 07007KT 05/M05 A3036 RMK A01 T00471045  RH  051%=      5-min Rain = 0
KSB1 020137Z 08007KT 05/M05 A3036 RMK A01 T00461046  RH  051%=      5-min Rain = 0
KSB1 020138Z 08008KT 05/M05 A3036 RMK A01 T00461045  RH  052%=      5-min Rain = 0
KSB1 020139Z 08009KT 05/M05 A3036 RMK A01 T00461045  RH  052%=      5-min Rain = 0
KSB1 020140Z 08009KT 05/M05 A3036 RMK A01 T00451045  RH  052%=      5-min Rain = 0
KSB1 020141Z 08008KT 05/M04 A3036 RMK A01 T00461044  RH  052%=      5-min Rain = 0
KSB1 020142Z 08009KT 05/M04 A3036 RMK A01 T00461044  RH  052%=      5-min Rain = 0
KSB1 020143Z 08008KT 05/M04 A3036 RMK A01 T00461044  RH  052%=      5-min Rain = 0
KSB1 020144Z 08008KT 05/M05 A3036 RMK A01 T00461045  RH  052%=      5-min Rain = 0
KSB1 020145Z 08008KT 05/M05 A3036 RMK A01 T00461045  RH  052%=      5-min Rain = 0
KSB1 020146Z 08008KT 05/M05 A3036 RMK A01 T00451045  RH  052%=      5-min Rain = 0
KSB1 020147Z 08008KT 05/M05 A3036 RMK A01 T00451045  RH  052%=      5-min Rain = 0
KSB1 020148Z 09008KT 05/M05 A3036 RMK A01 T00451045  RH  052%=      5-min Rain = 0
KSB1 020149Z 09008KT 05/M05 A3036 RMK A01 T00451045  RH  052%=      5-min Rain = 0
KSB1 020150Z 09007KT 04/M05 A3036 RMK A01 T00441045  RH  052%=      5-min Rain = 0
KSB1 020151Z 09009KT 04/M05 A3036 RMK A01 T00441045  RH  053%=      5-min Rain = 0
KSB1 020152Z 09008KT 04/M04 A3036 RMK A01 T00431044  RH  053%=      5-min Rain = 0
KSB1 020153Z 09007KT 04/M04 A3036 RMK A01 T00441043  RH  053%=      5-min Rain = 0
KSB1 020154Z 09009KT 04/M04 A3037 RMK A01 T00431043  RH  053%=      5-min Rain = 0
KSB1 020155Z 09008KT 04/M04 A3037 RMK A01 T00431043  RH  054%=      5-min Rain = 0
KSB1 020156Z 09008KT 04/M04 A3037 RMK A01 T00431042  RH  054%=      5-min Rain = 0
KSB1 020157Z 09009KT 04/M04 A3037 RMK A01 T00431041  RH  054%=      5-min Rain = 0
KSB1 020158Z 09009KT 04/M04 A3037 RMK A01 T00431041  RH  054%=      5-min Rain = 0
KSB1 020159Z 09008KT 04/M04 A3037 RMK A01 T00431041  RH  055%=      5-min Rain = 0
KSB1 020200Z 09009KT 04/M04 A3037 RMK A01 T00431041  RH  055%=      5-min Rain = 0
KSB1 020201Z 09010KT 04/M04 A3037 RMK A01 T00431040  RH  055%=      5-min Rain = 0
KSB1 020202Z 09008KT 04/M04 A3037 RMK A01 T00431040  RH  055%=      5-min Rain = 0
KSB1 020203Z 09007KT 04/M04 A3037 RMK A01 T00421040  RH  055%=      5-min Rain = 0
KSB1 020204Z 09008KT 04/M04 A3037 RMK A01 T00421041  RH  055%=      5-min Rain = 0
KSB1 020205Z 09007KT 04/M04 A3037 RMK A01 T00411041  RH  055%=      5-min Rain = 0
KSB1 020206Z 09008KT 04/M04 A3037 RMK A01 T00411041  RH  055%=      5-min Rain = 0
KSB1 020207Z 09008KT 04/M04 A3037 RMK A01 T00401041  RH  055%=      5-min Rain = 0
KSB1 020208Z 10009KT 04/M04 A3037 RMK A01 T00401041  RH  055%=      5-min Rain = 0
KSB1 020209Z 09008KT 04/M04 A3037 RMK A01 T00401040  RH  056%=      5-min Rain = 0
KSB1 020210Z 09007KT 04/M04 A3037 RMK A01 T00401041  RH  056%=      5-min Rain = 0
KSB1 020211Z 10008KT 04/M04 A3037 RMK A01 T00401041  RH  056%=      5-min Rain = 0
KSB1 020212Z 10008KT 04/M04 A3037 RMK A01 T00401041  RH  056%=      5-min Rain = 0
KSB1 020213Z 10008KT 04/M04 A3037 RMK A01 T00391041  RH  056%=      5-min Rain = 0
KSB1 020214Z 10007KT 04/M04 A3037 RMK A01 T00391040  RH  056%=      5-min Rain = 0
KSB1 020215Z 11006KT 04/M04 A3037 RMK A01 T00391041  RH  056%=      5-min Rain = 0
KSB1 020216Z 11005KT 04/M04 A3037 RMK A01 T00381041  RH  056%=      5-min Rain = 0
KSB1 020217Z 12005KT 04/M04 A3037 RMK A01 T00371042  RH  056%=      5-min Rain = 0
KSB1 020218Z 12005KT 04/M04 A3037 RMK A01 T00371042  RH  056%=      5-min Rain = 0
KSB1 020219Z 12005KT 04/M04 A3037 RMK A01 T00361043  RH  056%=      5-min Rain = 0
KSB1 020220Z 12006KT 04/M04 A3037 RMK A01 T00361043  RH  056%=      5-min Rain = 0
KSB1 020221Z 13005KT 04/M04 A3037 RMK A01 T00351043  RH  057%=      5-min Rain = 0
KSB1 020222Z 13006KT 04/M04 A3037 RMK A01 T00351042  RH  057%=      5-min Rain = 0
KSB1 020223Z 12005KT 03/M04 A3037 RMK A01 T00341042  RH  057%=      5-min Rain = 0
KSB1 020224Z 12006KT 03/M04 A3037 RMK A01 T00341042  RH  058%=      5-min Rain = 0
KSB1 020225Z 12007KT 03/M04 A3037 RMK A01 T00331041  RH  058%=      5-min Rain = 0
KSB1 020226Z 12006KT 03/M04 A3037 RMK A01 T00331041  RH  058%=      5-min Rain = 0
KSB1 020227Z 13007KT 03/M04 A3037 RMK A01 T00331040  RH  059%=      5-min Rain = 0
KSB1 020228Z 12007KT 03/M04 A3037 RMK A01 T00331040  RH  059%=      5-min Rain = 0
KSB1 020229Z 12007KT 03/M04 A3037 RMK A01 T00331040  RH  059%=      5-min Rain = 0
KSB1 020230Z 12006KT 03/M04 A3037 RMK A01 T00331040  RH  059%=      5-min Rain = 0
KSB1 020231Z 11007KT 03/M04 A3037 RMK A01 T00331040  RH  059%=      5-min Rain = 0
KSB1 020232Z 11006KT 03/M04 A3037 RMK A01 T00331040  RH  059%=      5-min Rain = 0
KSB1 020233Z 11005KT 03/M04 A3037 RMK A01 T00331040  RH  059%=      5-min Rain = 0
KSB1 020234Z 10005KT 03/M04 A3037 RMK A01 T00321041  RH  059%=      5-min Rain = 0
KSB1 020235Z 10006KT 03/M04 A3037 RMK A01 T00321041  RH  059%=      5-min Rain = 0
KSB1 020236Z 10005KT 03/M04 A3037 RMK A01 T00311042  RH  059%=      5-min Rain = 0
KSB1 020237Z 10005KT 03/M04 A3037 RMK A01 T00311041  RH  059%=      5-min Rain = 0
KSB1 020238Z 10005KT 03/M04 A3037 RMK A01 T00311041  RH  059%=      5-min Rain = 0
KSB1 020239Z 10005KT 03/M04 A3037 RMK A01 T00311041  RH  059%=      5-min Rain = 0
KSB1 020240Z 10006KT 03/M04 A3037 RMK A01 T00301042  RH  059%=      5-min Rain = 0
KSB1 020241Z 10006KT 03/M04 A3037 RMK A01 T00301042  RH  059%=      5-min Rain = 0
KSB1 020242Z 10006KT 03/M04 A3037 RMK A01 T00291041  RH  060%=      5-min Rain = 0
KSB1 020243Z 11006KT 03/M04 A3037 RMK A01 T00291041  RH  060%=      5-min Rain = 0
KSB1 020244Z 10006KT 03/M04 A3037 RMK A01 T00291041  RH  060%=      5-min Rain = 0
KSB1 020245Z 11006KT 03/M04 A3037 RMK A01 T00291041  RH  060%=      5-min Rain = 0
KSB1 020246Z 11006KT 03/M04 A3037 RMK A01 T00291040  RH  060%=      5-min Rain = 0
KSB1 020247Z 11006KT 03/M04 A3037 RMK A01 T00291040  RH  060%=      5-min Rain = 0
KSB1 020248Z 11006KT 03/M04 A3037 RMK A01 T00291040  RH  061%=      5-min Rain = 0
KSB1 020249Z 11006KT 03/M04 A3037 RMK A01 T00291040  RH  060%=      5-min Rain = 0
KSB1 020250Z 11006KT 03/M04 A3037 RMK A01 T00291040  RH  060%=      5-min Rain = 0
KSB1 020251Z 11006KT 03/M04 A3037 RMK A01 T00291040  RH  061%=      5-min Rain = 0
KSB1 020252Z 12006KT 03/M04 A3037 RMK A01 T00291040  RH  061%=      5-min Rain = 0
KSB1 020253Z 12006KT 03/M04 A3037 RMK A01 T00281040  RH  061%=      5-min Rain = 0
KSB1 020254Z 12006KT 03/M04 A3037 RMK A01 T00281041  RH  061%=      5-min Rain = 0
KSB1 020255Z 12006KT 03/M04 A3037 RMK A01 T00271041  RH  061%=      5-min Rain = 0
KSB1 020256Z 11006KT 03/M04 A3037 RMK A01 T00271041  RH  061%=      5-min Rain = 0
KSB1 020257Z 11006KT 03/M04 A3037 RMK A01 T00271041  RH  061%=      5-min Rain = 0
KSB1 020258Z 11005KT 03/M04 A3037 RMK A01 T00261041  RH  061%=      5-min Rain = 0
KSB1 020259Z 11005KT 03/M04 A3037 RMK A01 T00261041  RH  061%=      5-min Rain = 0
KSB1 020300Z 12005KT 03/M04 A3037 RMK A01 T00251041  RH  062%=      5-min Rain = 0
KSB1 020301Z 12006KT 03/M04 A3037 RMK A01 T00251041  RH  062%=      5-min Rain = 0
KSB1 020302Z 12005KT 02/M04 A3037 RMK A01 T00241042  RH  062%=      5-min Rain = 0
KSB1 020303Z 12005KT 02/M04 A3037 RMK A01 T00241042  RH  062%=      5-min Rain = 0
KSB1 020304Z 12005KT 02/M04 A3037 RMK A01 T00231042  RH  062%=      5-min Rain = 0
KSB1 020305Z 12006KT 02/M04 A3037 RMK A01 T00241041  RH  062%=      5-min Rain = 0
KSB1 020306Z 12006KT 02/M04 A3037 RMK A01 T00241041  RH  062%=      5-min Rain = 0
KSB1 020307Z 12007KT 02/M04 A3037 RMK A01 T00241041  RH  062%=      5-min Rain = 0
KSB1 020308Z 13007KT 02/M04 A3038 RMK A01 T00241040  RH  062%=      5-min Rain = 0
KSB1 020309Z 13006KT 02/M04 A3038 RMK A01 T00241040  RH  062%=      5-min Rain = 0
KSB1 020310Z 13005KT 02/M04 A3038 RMK A01 T00241041  RH  062%=      5-min Rain = 0
KSB1 020311Z 13005KT 02/M04 A3038 RMK A01 T00241041  RH  062%=      5-min Rain = 0
KSB1 020312Z 13005KT 02/M04 A3038 RMK A01 T00231041  RH  062%=      5-min Rain = 0
KSB1 020313Z 13005KT 02/M04 A3038 RMK A01 T00231041  RH  063%=      5-min Rain = 0
KSB1 020314Z 13005KT 02/M04 A3038 RMK A01 T00231040  RH  063%=      5-min Rain = 0
KSB1 020315Z 13005KT 02/M04 A3038 RMK A01 T00231041  RH  063%=      5-min Rain = 0
KSB1 020316Z 14005KT 02/M04 A3038 RMK A01 T00231041  RH  063%=      5-min Rain = 0
KSB1 020317Z 14005KT 02/M04 A3038 RMK A01 T00221042  RH  063%=      5-min Rain = 0
KSB1 020318Z 14005KT 02/M04 A3038 RMK A01 T00211043  RH  063%=      5-min Rain = 0
KSB1 020319Z 14006KT 02/M04 A3038 RMK A01 T00201043  RH  063%=      5-min Rain = 0
KSB1 020320Z 14005KT 02/M04 A3038 RMK A01 T00191043  RH  063%=      5-min Rain = 0
KSB1 020321Z 14006KT 02/M04 A3038 RMK A01 T00191043  RH  063%=      5-min Rain = 0
KSB1 020322Z 14005KT 02/M04 A3038 RMK A01 T00181043  RH  064%=      5-min Rain = 0
KSB1 020323Z 14006KT 02/M04 A3038 RMK A01 T00171043  RH  064%=      5-min Rain = 0
KSB1 020324Z 14005KT 02/M04 A3038 RMK A01 T00171043  RH  064%=      5-min Rain = 0
KSB1 020325Z 14006KT 02/M04 A3038 RMK A01 T00161043  RH  065%=      5-min Rain = 0
KSB1 020326Z 14005KT 02/M04 A3038 RMK A01 T00161043  RH  065%=      5-min Rain = 0
KSB1 020327Z 14005KT 02/M04 A3038 RMK A01 T00161042  RH  066%=      5-min Rain = 0
KSB1 020328Z 14006KT 02/M04 A3038 RMK A01 T00161041  RH  066%=      5-min Rain = 0
KSB1 020329Z 14006KT 02/M04 A3038 RMK A01 T00161042  RH  066%=      5-min Rain = 0
KSB1 020330Z 15006KT 02/M04 A3038 RMK A01 T00151042  RH  066%=      5-min Rain = 0
KSB1 020331Z 14006KT 02/M04 A3038 RMK A01 T00151042  RH  066%=      5-min Rain = 0
KSB1 020332Z 14006KT 02/M04 A3038 RMK A01 T00151042  RH  066%=      5-min Rain = 0
KSB1 020333Z 15006KT 01/M04 A3038 RMK A01 T00141042  RH  066%=      5-min Rain = 0
KSB1 020334Z 15006KT 01/M04 A3038 RMK A01 T00141043  RH  066%=      5-min Rain = 0
KSB1 020335Z 15006KT 01/M04 A3038 RMK A01 T00131043  RH  066%=      5-min Rain = 0
KSB1 020336Z 15006KT 01/M04 A3038 RMK A01 T00131043  RH  066%=      5-min Rain = 0
KSB1 020337Z 15006KT 01/M04 A3038 RMK A01 T00121043  RH  066%=      5-min Rain = 0
KSB1 020338Z 15005KT 01/M04 A3038 RMK A01 T00121043  RH  067%=      5-min Rain = 0
KSB1 020339Z 15005KT 01/M04 A3038 RMK A01 T00121043  RH  067%=      5-min Rain = 0
KSB1 020340Z 15005KT 01/M04 A3038 RMK A01 T00121043  RH  067%=      5-min Rain = 0
KSB1 020341Z 15005KT 01/M04 A3038 RMK A01 T00121042  RH  067%=      5-min Rain = 0
KSB1 020342Z 14006KT 01/M04 A3038 RMK A01 T00121042  RH  067%=      5-min Rain = 0
KSB1 020343Z 14005KT 01/M04 A3038 RMK A01 T00121042  RH  068%=      5-min Rain = 0
KSB1 020344Z 15006KT 01/M04 A3038 RMK A01 T00121041  RH  068%=      5-min Rain = 0
KSB1 020345Z 14006KT 01/M04 A3039 RMK A01 T00121040  RH  068%=      5-min Rain = 0
KSB1 020346Z 14006KT 01/M04 A3039 RMK A01 T00121041  RH  068%=      5-min Rain = 0
KSB1 020347Z 14006KT 01/M04 A3039 RMK A01 T00121041  RH  068%=      5-min Rain = 0
KSB1 020348Z 15006KT 01/M04 A3039 RMK A01 T00121041  RH  068%=      5-min Rain = 0
KSB1 020349Z 15006KT 01/M04 A3039 RMK A01 T00121041  RH  068%=      5-min Rain = 0
KSB1 020350Z 15006KT 01/M04 A3039 RMK A01 T00111041  RH  068%=      5-min Rain = 0
KSB1 020351Z 15005KT 01/M04 A3039 RMK A01 T00111042  RH  068%=      5-min Rain = 0
KSB1 020352Z 14007KT 01/M04 A3039 RMK A01 T00111042  RH  068%=      5-min Rain = 0
KSB1 020353Z 15006KT 01/M04 A3039 RMK A01 T00101042  RH  068%=      5-min Rain = 0
KSB1 020354Z 14006KT 01/M04 A3039 RMK A01 T00101041  RH  068%=      5-min Rain = 0
KSB1 020355Z 14006KT 01/M04 A3039 RMK A01 T00101041  RH  069%=      5-min Rain = 0
KSB1 020356Z 14006KT 01/M04 A3039 RMK A01 T00101041  RH  069%=      5-min Rain = 0
KSB1 020357Z 15006KT 01/M04 A3039 RMK A01 T00101041  RH  069%=      5-min Rain = 0
KSB1 020358Z 15006KT 01/M04 A3039 RMK A01 T00101041  RH  069%=      5-min Rain = 0
KSB1 020359Z 15006KT 01/M04 A3039 RMK A01 T00101041  RH  069%=      5-min Rain = 0
KSB1 020400Z 15005KT 01/M04 A3039 RMK A01 T00101041  RH  069%=      5-min Rain = 0
KSB1 020401Z 14006KT 01/M04 A3039 RMK A01 T00091041  RH  069%=      5-min Rain = 0
KSB1 020402Z 14006KT 01/M04 A3039 RMK A01 T00101040  RH  069%=      5-min Rain = 0
KSB1 020403Z 14006KT 01/M04 A3039 RMK A01 T00091040  RH  069%=      5-min Rain = 0
KSB1 020404Z 14006KT 01/M04 A3039 RMK A01 T00091040  RH  070%=      5-min Rain = 0
KSB1 020405Z 14006KT 01/M04 A3039 RMK A01 T00091039  RH  070%=      5-min Rain = 0
KSB1 020406Z 14006KT 01/M04 A3039 RMK A01 T00101039  RH  070%=      5-min Rain = 0
KSB1 020407Z 14006KT 01/M04 A3039 RMK A01 T00101039  RH  070%=      5-min Rain = 0
KSB1 020408Z 13006KT 01/M04 A3039 RMK A01 T00101039  RH  070%=      5-min Rain = 0
KSB1 020409Z 13006KT 01/M04 A3039 RMK A01 T00101038  RH  070%=      5-min Rain = 0
KSB1 020410Z 14006KT 01/M04 A3039 RMK A01 T00101039  RH  070%=      5-min Rain = 0
KSB1 020411Z 13005KT 01/M04 A3039 RMK A01 T00111039  RH  070%=      5-min Rain = 0
KSB1 020412Z 14005KT 01/M04 A3039 RMK A01 T00101039  RH  070%=      5-min Rain = 0
KSB1 020413Z 13006KT 01/M04 A3039 RMK A01 T00101039  RH  070%=      5-min Rain = 0
KSB1 020414Z 14005KT 01/M04 A3039 RMK A01 T00101039  RH  070%=      5-min Rain = 0
KSB1 020415Z 13005KT 01/M04 A3039 RMK A01 T00101039  RH  070%=      5-min Rain = 0
KSB1 020416Z 13005KT 01/M04 A3039 RMK A01 T00101038  RH  070%=      5-min Rain = 0
KSB1 020417Z 13005KT 01/M04 A3039 RMK A01 T00101039  RH  070%=      5-min Rain = 0
KSB1 020418Z 13005KT 01/M04 A3039 RMK A01 T00101038  RH  070%=      5-min Rain = 0
KSB1 020419Z 13005KT 01/M04 A3039 RMK A01 T00101038  RH  070%=      5-min Rain = 0
KSB1 020420Z 13004KT 01/M04 A3039 RMK A01 T00101038  RH  070%=      5-min Rain = 0
KSB1 020421Z 13004KT 01/M04 A3039 RMK A01 T00101038  RH  070%=      5-min Rain = 0
KSB1 020422Z 14004KT 01/M04 A3039 RMK A01 T00101038  RH  070%=      5-min Rain = 0
KSB1 020423Z 14004KT 01/M04 A3039 RMK A01 T00091039  RH  070%=      5-min Rain = 0
KSB1 020424Z 14004KT 01/M04 A3039 RMK A01 T00081040  RH  070%=      5-min Rain = 0
KSB1 020425Z 14004KT 01/M04 A3039 RMK A01 T00071041  RH  070%=      5-min Rain = 0
KSB1 020426Z 14005KT 01/M04 A3039 RMK A01 T00071041  RH  070%=      5-min Rain = 0
KSB1 020427Z 15005KT 01/M04 A3039 RMK A01 T00061042  RH  070%=      5-min Rain = 0
KSB1 020428Z 15004KT 01/M04 A3039 RMK A01 T00051042  RH  071%=      5-min Rain = 0
KSB1 020429Z 15004KT 00/M04 A3039 RMK A01 T00041042  RH  071%=      5-min Rain = 0
KSB1 020430Z 14005KT 00/M04 A3039 RMK A01 T00041042  RH  071%=      5-min Rain = 0
KSB1 020431Z 14004KT 00/M04 A3039 RMK A01 T00031042  RH  071%=      5-min Rain = 0
KSB1 020432Z 14004KT 00/M04 A3039 RMK A01 T00031042  RH  072%=      5-min Rain = 0
KSB1 020433Z 13004KT 00/M04 A3039 RMK A01 T00031042  RH  072%=      5-min Rain = 0
KSB1 020434Z 13005KT 00/M04 A3039 RMK A01 T00031041  RH  072%=      5-min Rain = 0
KSB1 020435Z 13004KT 00/M04 A3039 RMK A01 T00031040  RH  073%=      5-min Rain = 0
KSB1 020436Z 13005KT 00/M04 A3039 RMK A01 T00041040  RH  073%=      5-min Rain = 0
KSB1 020437Z 13005KT 00/M04 A3039 RMK A01 T00041039  RH  073%=      5-min Rain = 0
KSB1 020438Z 13004KT 01/M04 A3039 RMK A01 T00051039  RH  072%=      5-min Rain = 0
KSB1 020439Z 13004KT 01/M04 A3039 RMK A01 T00051039  RH  072%=      5-min Rain = 0
KSB1 020440Z 13005KT 01/M04 A3039 RMK A01 T00051039  RH  072%=      5-min Rain = 0
KSB1 020441Z 14005KT 01/M04 A3039 RMK A01 T00061039  RH  072%=      5-min Rain = 0
KSB1 020442Z 13004KT 01/M04 A3039 RMK A01 T00061039  RH  072%=      5-min Rain = 0
KSB1 020443Z 13004KT 01/M04 A3039 RMK A01 T00061039  RH  072%=      5-min Rain = 0
KSB1 020444Z 13004KT 01/M04 A3039 RMK A01 T00061039  RH  072%=      5-min Rain = 0
KSB1 020445Z 13004KT 01/M04 A3039 RMK A01 T00061039  RH  072%=      5-min Rain = 0
KSB1 020446Z 13004KT 01/M04 A3039 RMK A01 T00051039  RH  072%=      5-min Rain = 0
KSB1 020447Z 13004KT 01/M04 A3039 RMK A01 T00061039  RH  072%=      5-min Rain = 0
KSB1 020448Z 14004KT 01/M04 A3039 RMK A01 T00061039  RH  072%=      5-min Rain = 0
KSB1 020449Z 14004KT 01/M04 A3039 RMK A01 T00061039  RH  072%=      5-min Rain = 0
KSB1 020450Z 14004KT 01/M04 A3038 RMK A01 T00051040  RH  072%=      5-min Rain = 0
KSB1 020451Z 15003KT 01/M04 A3038 RMK A01 T00051041  RH  071%=      5-min Rain = 0
KSB1 020452Z 16003KT 00/M04 A3038 RMK A01 T00041042  RH  071%=      5-min Rain = 0
KSB1 020453Z 17003KT 00/M04 A3038 RMK A01 T00031043  RH  071%=      5-min Rain = 0
KSB1 020454Z 18003KT 00/M04 A3038 RMK A01 T00011044  RH  072%=      5-min Rain = 0
KSB1 020455Z 18003KT 00/04 A3038 RMK A01 T00000-44  RH  072%=      5-min Rain = 0
KSB1 020456Z 19003KT M00/M04 A3038 RMK A01 T10011044  RH  073%=      5-min Rain = 0
KSB1 020457Z 21003KT M00/M04 A3038 RMK A01 T10011043  RH  073%=      5-min Rain = 0
KSB1 020458Z 22003KT M00/M04 A3038 RMK A01 T10021044  RH  073%=      5-min Rain = 0
KSB1 020459Z 23003KT M00/M05 A3038 RMK A01 T10031045  RH  073%=      5-min Rain = 0
KSB1 020500Z 22002KT M00/M05 A3038 RMK A01 T10031045  RH  074%=      5-min Rain = 0
KSB1 020501Z 21002KT M00/M04 A3038 RMK A01 T10031043  RH  074%=      5-min Rain = 0
KSB1 020502Z 21002KT M00/M04 A3038 RMK A01 T10021042  RH  074%=      5-min Rain = 0
KSB1 020503Z 18001KT M00/M04 A3038 RMK A01 T10011041  RH  074%=      5-min Rain = 0
KSB1 020504Z 18001KT 00/04 A3038 RMK A01 T00-00-41  RH  074%=      5-min Rain = 0
KSB1 020505Z 16003KT 00/04 A3038 RMK A01 T00-00-42  RH  074%=      5-min Rain = 0
KSB1 020506Z 16003KT 00/04 A3038 RMK A01 T00000-41  RH  074%=      5-min Rain = 0
KSB1 020507Z 16003KT 00/M04 A3038 RMK A01 T00021040  RH  074%=      5-min Rain = 0
KSB1 020508Z 17002KT 00/M04 A3038 RMK A01 T00021040  RH  073%=      5-min Rain = 0
KSB1 020509Z 15003KT 00/M04 A3038 RMK A01 T00021041  RH  073%=      5-min Rain = 0
KSB1 020510Z 16002KT 00/M04 A3038 RMK A01 T00021042  RH  072%=      5-min Rain = 0
KSB1 020511Z 17002KT 00/M04 A3038 RMK A01 T00021042  RH  072%=      5-min Rain = 0
KSB1 020512Z 17002KT 00/M04 A3038 RMK A01 T00021042  RH  072%=      5-min Rain = 0
KSB1 020513Z 16002KT 00/M04 A3038 RMK A01 T00031042  RH  072%=      5-min Rain = 0
KSB1 020514Z 18002KT 00/M04 A3038 RMK A01 T00031041  RH  072%=      5-min Rain = 0
KSB1 020515Z 17002KT 00/M04 A3038 RMK A01 T00041041  RH  072%=      5-min Rain = 0
KSB1 020516Z 18002KT 00/M04 A3038 RMK A01 T00041042  RH  072%=      5-min Rain = 0
KSB1 020517Z 18001KT 00/M04 A3038 RMK A01 T00031042  RH  072%=      5-min Rain = 0
KSB1 020518Z 16002KT 00/M04 A3038 RMK A01 T00031043  RH  072%=      5-min Rain = 0
KSB1 020519Z 20002KT 00/M04 A3038 RMK A01 T00031042  RH  072%=      5-min Rain = 0
KSB1 020520Z 19002KT 00/M04 A3038 RMK A01 T00031043  RH  072%=      5-min Rain = 0
KSB1 020521Z 18002KT 00/M04 A3038 RMK A01 T00021043  RH  072%=      5-min Rain = 0
KSB1 020522Z 17002KT 00/M04 A3038 RMK A01 T00021043  RH  072%=      5-min Rain = 0
KSB1 020523Z 16002KT 00/M04 A3038 RMK A01 T00021043  RH  072%=      5-min Rain = 0
KSB1 020524Z 18001KT 00/M04 A3038 RMK A01 T00021042  RH  072%=      5-min Rain = 0
KSB1 020525Z 13001KT 00/M04 A3038 RMK A01 T00021042  RH  072%=      5-min Rain = 0
KSB1 020526Z 14002KT 00/M04 A3038 RMK A01 T00021043  RH  072%=      5-min Rain = 0
KSB1 020527Z 14002KT 00/M04 A3038 RMK A01 T00021043  RH  072%=      5-min Rain = 0
KSB1 020528Z 14003KT 00/M04 A3038 RMK A01 T00021043  RH  072%=      5-min Rain = 0
KSB1 020529Z 13002KT 00/M04 A3038 RMK A01 T00021043  RH  072%=      5-min Rain = 0
KSB1 020530Z 14002KT 00/M04 A3038 RMK A01 T00021043  RH  071%=      5-min Rain = 0
KSB1 020531Z 13002KT 00/M04 A3038 RMK A01 T00031043  RH  071%=      5-min Rain = 0
KSB1 020532Z 14001KT 00/M04 A3038 RMK A01 T00031043  RH  071%=      5-min Rain = 0
KSB1 020533Z 14002KT 00/M04 A3037 RMK A01 T00031043  RH  071%=      5-min Rain = 0
KSB1 020534Z 14003KT 00/M04 A3037 RMK A01 T00031043  RH  071%=      5-min Rain = 0
KSB1 020535Z 14002KT 00/M04 A3037 RMK A01 T00021044  RH  071%=      5-min Rain = 0
KSB1 020536Z 13001KT 00/M04 A3037 RMK A01 T00031043  RH  071%=      5-min Rain = 0
KSB1 020537Z 13002KT 00/M04 A3037 RMK A01 T00031043  RH  071%=      5-min Rain = 0
KSB1 020538Z 13003KT 00/M04 A3037 RMK A01 T00031043  RH  071%=      5-min Rain = 0
KSB1 020539Z 12003KT 00/M04 A3037 RMK A01 T00031043  RH  071%=      5-min Rain = 0
KSB1 020540Z 12002KT 00/M04 A3037 RMK A01 T00031043  RH  071%=      5-min Rain = 0
KSB1 020541Z 12002KT 00/M04 A3037 RMK A01 T00041043  RH  071%=      5-min Rain = 0
KSB1 020542Z 11002KT 00/M04 A3037 RMK A01 T00041043  RH  071%=      5-min Rain = 0
KSB1 020543Z 11003KT 00/M04 A3037 RMK A01 T00041043  RH  071%=      5-min Rain = 0
KSB1 020544Z 10003KT 01/M04 A3037 RMK A01 T00051043  RH  071%=      5-min Rain = 0
KSB1 020545Z 10003KT 01/M04 A3037 RMK A01 T00051043  RH  070%=      5-min Rain = 0
KSB1 020546Z 10003KT 01/M04 A3037 RMK A01 T00051043  RH  070%=      5-min Rain = 0
KSB1 020547Z 09002KT 01/M04 A3037 RMK A01 T00051043  RH  070%=      5-min Rain = 0
KSB1 020548Z 09002KT 01/M04 A3037 RMK A01 T00051043  RH  070%=      5-min Rain = 0
KSB1 020549Z 09002KT 00/M04 A3037 RMK A01 T00041044  RH  070%=      5-min Rain = 0
KSB1 020550Z 08002KT 00/M04 A3036 RMK A01 T00041043  RH  070%=      5-min Rain = 0
KSB1 020551Z 08002KT 00/M04 A3036 RMK A01 T00041043  RH  071%=      5-min Rain = 0
KSB1 020552Z 08002KT 00/M04 A3036 RMK A01 T00041043  RH  071%=      5-min Rain = 0
KSB1 020553Z 08003KT 00/M04 A3036 RMK A01 T00031043  RH  071%=      5-min Rain = 0
KSB1 020554Z 07002KT 00/M04 A3036 RMK A01 T00031043  RH  071%=      5-min Rain = 0
KSB1 020555Z 07002KT 00/M04 A3036 RMK A01 T00031044  RH  071%=      5-min Rain = 0
KSB1 020556Z 07002KT 00/M04 A3036 RMK A01 T00031043  RH  071%=      5-min Rain = 0
KSB1 020557Z 06002KT 00/M04 A3036 RMK A01 T00031043  RH  071%=      5-min Rain = 0
KSB1 020558Z 07002KT 00/M04 A3036 RMK A01 T00031043  RH  071%=      5-min Rain = 0
KSB1 020559Z 06002KT 00/M04 A3036 RMK A01 T00031043  RH  071%=      5-min Rain = 0

Page generated in 0.0704 seconds.